<?xml version="1.0" encoding="UTF-8" standalone="no" ?>
<gpx xmlns="http://www.topografix.com/GPX/1/1" xmlns:xsi="http://www.w3.org/2001/XMLSchema-instance" xsi:schemaLocation="http://www.topografix.com/GPX/1/1 http://www.topografix.com/GPX/1/1/gpx.xsd" version="1.1" creator="VisuGPX - https://www.visugpx.com">
  <metadata>
    <name>Ajout Pyrénées</name>
    <desc><![CDATA[Randonnée sur le GR®654 Via Lemovicensis vers Saint-Jacques-de-Compostelle à travers les Landes et les Pyrénées-Atlantiques de Mont-de-Marsan à Saint-Palais. Gîtes d'étapes, Chambres d'hôtes, Maison d'hôtes, Hôtels, Camping, Refuges, Auberges, Commerces.]]></desc>
  </metadata>
  <trk>
    <name><![CDATA[GR8 De Urt à Sare (Pyrénées-Atlantiques) (2020)]]></name>
    <desc><![CDATA[Randonnée sur le GR8 à travers les Pyrénées-Atlantiques de Urt à Sare. Gîtes d'étapes, Chambres d'hôtes, Maison d'hôtes, Hôtels, Camping, Refuges, Auberges.]]></desc>
    <extensions>
      <line xmlns="http://www.topografix.com/GPX/gpx_style/0/2">
        <color>000000</color>
        <width>4</width>
      </line>
    </extensions>
    <trkseg>
      <trkpt lat="43.49807" lon="-1.29641">
        <ele>10.044</ele>
        <time>2019-03-02T14:59:42Z</time>
      </trkpt>
      <trkpt lat="43.49869" lon="-1.29697">
        <ele>8.905</ele>
        <time>2019-03-02T15:00:02Z</time>
      </trkpt>
      <trkpt lat="43.49899" lon="-1.29822">
        <ele>4.715</ele>
        <time>2020-12-02T13:36:32Z</time>
      </trkpt>
      <trkpt lat="43.49936" lon="-1.29817">
        <ele>3.708</ele>
        <time>2020-12-02T13:36:52Z</time>
      </trkpt>
      <trkpt lat="43.49959" lon="-1.29839">
        <ele>3.19</ele>
        <time>2020-12-02T13:37:12Z</time>
      </trkpt>
      <trkpt lat="43.50004" lon="-1.29802">
        <ele>2.025</ele>
        <time>2020-12-02T13:37:32Z</time>
      </trkpt>
      <trkpt lat="43.50068" lon="-1.29925">
        <ele>4.979</ele>
        <time>2020-12-02T13:37:52Z</time>
      </trkpt>
      <trkpt lat="43.50082" lon="-1.30009">
        <ele>4.171</ele>
        <time>2020-12-02T13:38:12Z</time>
      </trkpt>
      <trkpt lat="43.50097" lon="-1.30168">
        <ele>4.09</ele>
        <time>2020-12-02T13:38:32Z</time>
      </trkpt>
      <trkpt lat="43.50112" lon="-1.30436">
        <ele>0.052</ele>
        <time>2020-12-02T13:38:52Z</time>
      </trkpt>
      <trkpt lat="43.50117" lon="-1.30715">
        <ele>1.085</ele>
        <time>2020-12-02T13:39:12Z</time>
      </trkpt>
      <trkpt lat="43.50101" lon="-1.30873">
        <ele>1.072</ele>
        <time>2019-03-02T15:02:42Z</time>
      </trkpt>
      <trkpt lat="43.50104" lon="-1.31068">
        <ele>1.037</ele>
        <time>2019-03-02T15:03:02Z</time>
      </trkpt>
      <trkpt lat="43.50043" lon="-1.31068">
        <ele>1.049</ele>
        <time>2019-03-02T15:03:22Z</time>
      </trkpt>
      <trkpt lat="43.50019" lon="-1.31493">
        <ele>1.013</ele>
        <time>2019-03-02T15:03:42Z</time>
      </trkpt>
      <trkpt lat="43.50034" lon="-1.31563">
        <ele>1.008</ele>
        <time>2019-03-02T15:04:02Z</time>
      </trkpt>
      <trkpt lat="43.49984" lon="-1.3166">
        <ele>1.619</ele>
        <time>2019-03-02T15:04:22Z</time>
      </trkpt>
      <trkpt lat="43.49917" lon="-1.31727">
        <ele>2.014</ele>
        <time>2019-03-02T15:04:42Z</time>
      </trkpt>
      <trkpt lat="43.49883" lon="-1.31795">
        <ele>2.078</ele>
        <time>2019-03-02T15:05:02Z</time>
      </trkpt>
      <trkpt lat="43.49854" lon="-1.31866">
        <ele>2.02</ele>
        <time>2019-03-02T15:05:22Z</time>
      </trkpt>
      <trkpt lat="43.49835" lon="-1.31905">
        <ele>2.059</ele>
        <time>2019-03-02T15:05:42Z</time>
      </trkpt>
      <trkpt lat="43.49808" lon="-1.32132">
        <ele>2.091</ele>
        <time>2019-03-02T15:06:02Z</time>
      </trkpt>
      <trkpt lat="43.49802" lon="-1.32345">
        <ele>1.084</ele>
        <time>2019-03-02T15:06:22Z</time>
      </trkpt>
      <trkpt lat="43.49787" lon="-1.32441">
        <ele>1.091</ele>
        <time>2019-03-02T15:06:42Z</time>
      </trkpt>
      <trkpt lat="43.49717" lon="-1.32488">
        <ele>2.048</ele>
        <time>2019-03-02T15:07:02Z</time>
      </trkpt>
      <trkpt lat="43.4969" lon="-1.32458">
        <ele>2.061</ele>
        <time>2019-03-02T15:07:22Z</time>
      </trkpt>
      <trkpt lat="43.49679" lon="-1.3237">
        <ele>2.017</ele>
        <time>2019-03-02T15:07:42Z</time>
      </trkpt>
      <trkpt lat="43.49664" lon="-1.3233">
        <ele>2.008</ele>
        <time>2019-03-02T15:08:02Z</time>
      </trkpt>
      <trkpt lat="43.49636" lon="-1.32314">
        <ele>2.06</ele>
        <time>2019-03-02T15:08:22Z</time>
      </trkpt>
      <trkpt lat="43.49606" lon="-1.32314">
        <ele>2.065</ele>
        <time>2019-03-02T15:08:42Z</time>
      </trkpt>
      <trkpt lat="43.49552" lon="-1.32248">
        <ele>2.059</ele>
        <time>2019-03-02T15:09:02Z</time>
      </trkpt>
      <trkpt lat="43.49531" lon="-1.32188">
        <ele>2.091</ele>
        <time>2019-03-02T15:09:22Z</time>
      </trkpt>
      <trkpt lat="43.49524" lon="-1.32115">
        <ele>2.07</ele>
        <time>2019-03-02T15:09:42Z</time>
      </trkpt>
      <trkpt lat="43.49499" lon="-1.32076">
        <ele>2.032</ele>
        <time>2019-03-02T15:10:02Z</time>
      </trkpt>
      <trkpt lat="43.49438" lon="-1.3207">
        <ele>2.095</ele>
        <time>2019-03-02T15:10:22Z</time>
      </trkpt>
      <trkpt lat="43.49388" lon="-1.32031">
        <ele>2.082</ele>
        <time>2019-03-02T15:10:42Z</time>
      </trkpt>
      <trkpt lat="43.4934" lon="-1.32012">
        <ele>2.027</ele>
        <time>2019-03-02T15:11:02Z</time>
      </trkpt>
      <trkpt lat="43.49267" lon="-1.31937">
        <ele>2.068</ele>
        <time>2019-03-02T15:11:22Z</time>
      </trkpt>
      <trkpt lat="43.49245" lon="-1.31896">
        <ele>2.014</ele>
        <time>2019-03-02T15:11:42Z</time>
      </trkpt>
      <trkpt lat="43.49236" lon="-1.3184">
        <ele>2.008</ele>
        <time>2019-03-02T15:12:02Z</time>
      </trkpt>
      <trkpt lat="43.49176" lon="-1.31825">
        <ele>2.028</ele>
        <time>2019-03-02T15:12:22Z</time>
      </trkpt>
      <trkpt lat="43.49102" lon="-1.31784">
        <ele>2.083</ele>
        <time>2019-03-02T15:12:42Z</time>
      </trkpt>
      <trkpt lat="43.49094" lon="-1.31718">
        <ele>2.067</ele>
        <time>2019-03-02T15:13:02Z</time>
      </trkpt>
      <trkpt lat="43.49075" lon="-1.31666">
        <ele>2.039</ele>
        <time>2019-03-02T15:13:22Z</time>
      </trkpt>
      <trkpt lat="43.48966" lon="-1.31611">
        <ele>2.078</ele>
        <time>2019-03-02T15:13:42Z</time>
      </trkpt>
      <trkpt lat="43.48921" lon="-1.31581">
        <ele>2.02</ele>
        <time>2019-03-02T15:14:02Z</time>
      </trkpt>
      <trkpt lat="43.48822" lon="-1.31677">
        <ele>2.083</ele>
        <time>2019-03-02T15:14:22Z</time>
      </trkpt>
      <trkpt lat="43.48728" lon="-1.31825">
        <ele>2.06</ele>
        <time>2019-03-02T15:14:42Z</time>
      </trkpt>
      <trkpt lat="43.48695" lon="-1.31845">
        <ele>2.019</ele>
        <time>2019-03-02T15:15:02Z</time>
      </trkpt>
      <trkpt lat="43.48692" lon="-1.31877">
        <ele>2.009</ele>
        <time>2019-03-02T15:15:22Z</time>
      </trkpt>
      <trkpt lat="43.48641" lon="-1.31941">
        <ele>2.019</ele>
        <time>2019-03-02T15:15:42Z</time>
      </trkpt>
      <trkpt lat="43.48644" lon="-1.31986">
        <ele>2.008</ele>
        <time>2019-03-02T15:16:02Z</time>
      </trkpt>
      <trkpt lat="43.48596" lon="-1.31995">
        <ele>2.097</ele>
        <time>2019-03-02T15:16:22Z</time>
      </trkpt>
      <trkpt lat="43.4859" lon="-1.32072">
        <ele>2.042</ele>
        <time>2019-03-02T15:16:42Z</time>
      </trkpt>
      <trkpt lat="43.48551" lon="-1.32091">
        <ele>2.026</ele>
        <time>2019-03-02T15:17:02Z</time>
      </trkpt>
      <trkpt lat="43.48529" lon="-1.32126">
        <ele>2.018</ele>
        <time>2019-03-02T15:17:22Z</time>
      </trkpt>
      <trkpt lat="43.48516" lon="-1.32113">
        <ele>2.037</ele>
        <time>2019-03-02T15:17:42Z</time>
      </trkpt>
      <trkpt lat="43.4852" lon="-1.32038">
        <ele>2.099</ele>
        <time>2019-03-02T15:18:02Z</time>
      </trkpt>
      <trkpt lat="43.4849" lon="-1.32016">
        <ele>2.272</ele>
        <time>2019-03-02T15:18:22Z</time>
      </trkpt>
      <trkpt lat="43.48485" lon="-1.32141">
        <ele>2.029</ele>
        <time>2019-03-02T15:18:42Z</time>
      </trkpt>
      <trkpt lat="43.48412" lon="-1.32139">
        <ele>2.841</ele>
        <time>2019-03-02T15:19:02Z</time>
      </trkpt>
      <trkpt lat="43.48367" lon="-1.32145">
        <ele>3.081</ele>
        <time>2019-03-02T15:19:22Z</time>
      </trkpt>
      <trkpt lat="43.48342" lon="-1.32121">
        <ele>3.309</ele>
        <time>2019-03-02T15:19:42Z</time>
      </trkpt>
      <trkpt lat="43.48331" lon="-1.32093">
        <ele>3.008</ele>
        <time>2019-03-02T15:20:02Z</time>
      </trkpt>
      <trkpt lat="43.48309" lon="-1.32098">
        <ele>3.09</ele>
        <time>2019-03-02T15:20:22Z</time>
      </trkpt>
      <trkpt lat="43.48284" lon="-1.32115">
        <ele>3.175</ele>
        <time>2019-03-02T15:20:42Z</time>
      </trkpt>
      <trkpt lat="43.48283" lon="-1.32158">
        <ele>4.129</ele>
        <time>2019-03-02T15:21:02Z</time>
      </trkpt>
      <trkpt lat="43.48255" lon="-1.3222">
        <ele>3.241</ele>
        <time>2019-03-02T15:21:22Z</time>
      </trkpt>
      <trkpt lat="43.48288" lon="-1.32267">
        <ele>5.64</ele>
        <time>2019-03-02T15:21:42Z</time>
      </trkpt>
      <trkpt lat="43.48274" lon="-1.32452">
        <ele>3.092</ele>
        <time>2019-03-02T15:22:02Z</time>
      </trkpt>
      <trkpt lat="43.48277" lon="-1.32495">
        <ele>3.065</ele>
        <time>2019-03-02T15:22:22Z</time>
      </trkpt>
      <trkpt lat="43.48267" lon="-1.32566">
        <ele>3.082</ele>
        <time>2019-03-02T15:22:42Z</time>
      </trkpt>
      <trkpt lat="43.48275" lon="-1.32613">
        <ele>3.095</ele>
        <time>2019-03-02T15:23:02Z</time>
      </trkpt>
      <trkpt lat="43.48213" lon="-1.32671">
        <ele>3.049</ele>
        <time>2019-03-02T15:23:22Z</time>
      </trkpt>
      <trkpt lat="43.48241" lon="-1.32742">
        <ele>3.023</ele>
        <time>2019-03-02T15:23:42Z</time>
      </trkpt>
      <trkpt lat="43.4823" lon="-1.3278">
        <ele>3.408</ele>
        <time>2019-03-02T15:24:02Z</time>
      </trkpt>
      <trkpt lat="43.48163" lon="-1.32761">
        <ele>3.025</ele>
        <time>2019-03-02T15:24:22Z</time>
      </trkpt>
      <trkpt lat="43.48141" lon="-1.32832">
        <ele>3.16</ele>
        <time>2019-03-02T15:24:42Z</time>
      </trkpt>
      <trkpt lat="43.48138" lon="-1.3292">
        <ele>3.014</ele>
        <time>2019-03-02T15:25:02Z</time>
      </trkpt>
      <trkpt lat="43.4816" lon="-1.33003">
        <ele>5.916</ele>
        <time>2019-03-02T15:25:22Z</time>
      </trkpt>
      <trkpt lat="43.48127" lon="-1.32997">
        <ele>3.035</ele>
        <time>2019-03-02T15:25:42Z</time>
      </trkpt>
      <trkpt lat="43.48094" lon="-1.3302">
        <ele>3.017</ele>
        <time>2019-03-02T15:26:02Z</time>
      </trkpt>
      <trkpt lat="43.48065" lon="-1.32973">
        <ele>3.06</ele>
        <time>2019-03-02T15:26:22Z</time>
      </trkpt>
      <trkpt lat="43.48003" lon="-1.33001">
        <ele>3.067</ele>
        <time>2019-03-02T15:26:42Z</time>
      </trkpt>
      <trkpt lat="43.47936" lon="-1.33059">
        <ele>3.068</ele>
        <time>2019-03-02T15:27:02Z</time>
      </trkpt>
      <trkpt lat="43.47915" lon="-1.33209">
        <ele>3.042</ele>
        <time>2019-03-02T15:27:22Z</time>
      </trkpt>
      <trkpt lat="43.47858" lon="-1.33231">
        <ele>3.126</ele>
        <time>2019-03-02T15:27:42Z</time>
      </trkpt>
      <trkpt lat="43.47833" lon="-1.33269">
        <ele>3.308</ele>
        <time>2019-03-02T15:28:02Z</time>
      </trkpt>
      <trkpt lat="43.47827" lon="-1.33334">
        <ele>3.222</ele>
        <time>2019-03-02T15:28:22Z</time>
      </trkpt>
      <trkpt lat="43.47783" lon="-1.33366">
        <ele>3.827</ele>
        <time>2019-03-02T15:28:42Z</time>
      </trkpt>
      <trkpt lat="43.47767" lon="-1.33396">
        <ele>4.091</ele>
        <time>2019-03-02T15:29:02Z</time>
      </trkpt>
      <trkpt lat="43.47721" lon="-1.33426">
        <ele>4.083</ele>
        <time>2019-03-02T15:29:22Z</time>
      </trkpt>
      <trkpt lat="43.47673" lon="-1.33475">
        <ele>4.032</ele>
        <time>2019-03-02T15:29:42Z</time>
      </trkpt>
      <trkpt lat="43.47593" lon="-1.3351">
        <ele>4.024</ele>
        <time>2019-03-02T15:30:02Z</time>
      </trkpt>
      <trkpt lat="43.47529" lon="-1.33508">
        <ele>4.097</ele>
        <time>2019-03-02T15:30:22Z</time>
      </trkpt>
      <trkpt lat="43.47517" lon="-1.33587">
        <ele>4.014</ele>
        <time>2019-03-02T15:30:42Z</time>
      </trkpt>
      <trkpt lat="43.47535" lon="-1.33688">
        <ele>4.669</ele>
        <time>2019-03-02T15:31:02Z</time>
      </trkpt>
      <trkpt lat="43.47531" lon="-1.33954">
        <ele>4.004</ele>
        <time>2019-03-02T15:31:22Z</time>
      </trkpt>
      <trkpt lat="43.47539" lon="-1.34027">
        <ele>4.024</ele>
        <time>2019-03-02T15:31:42Z</time>
      </trkpt>
      <trkpt lat="43.47517" lon="-1.34072">
        <ele>4.008</ele>
        <time>2019-03-02T15:32:02Z</time>
      </trkpt>
      <trkpt lat="43.4748" lon="-1.3408">
        <ele>4.162</ele>
        <time>2019-03-02T15:32:22Z</time>
      </trkpt>
      <trkpt lat="43.47426" lon="-1.34065">
        <ele>5.747</ele>
        <time>2019-03-02T15:32:42Z</time>
      </trkpt>
      <trkpt lat="43.47404" lon="-1.34115">
        <ele>5.921</ele>
        <time>2019-03-02T15:33:02Z</time>
      </trkpt>
      <trkpt lat="43.47349" lon="-1.34205">
        <ele>7.633</ele>
        <time>2019-03-02T15:33:22Z</time>
      </trkpt>
      <trkpt lat="43.47329" lon="-1.34314">
        <ele>6.052</ele>
        <time>2019-03-02T15:33:42Z</time>
      </trkpt>
      <trkpt lat="43.4729" lon="-1.34374">
        <ele>6.374</ele>
        <time>2019-03-02T15:34:02Z</time>
      </trkpt>
      <trkpt lat="43.47271" lon="-1.34432">
        <ele>6.177</ele>
        <time>2019-03-02T15:34:22Z</time>
      </trkpt>
      <trkpt lat="43.4722" lon="-1.34443">
        <ele>7.144</ele>
        <time>2019-03-02T15:34:42Z</time>
      </trkpt>
      <trkpt lat="43.47176" lon="-1.34507">
        <ele>7.041</ele>
        <time>2019-03-02T15:35:02Z</time>
      </trkpt>
      <trkpt lat="43.47204" lon="-1.34516">
        <ele>7.081</ele>
        <time>2019-03-02T15:35:22Z</time>
      </trkpt>
      <trkpt lat="43.47204" lon="-1.34574">
        <ele>7.009</ele>
        <time>2019-03-02T15:35:42Z</time>
      </trkpt>
      <trkpt lat="43.47256" lon="-1.34623">
        <ele>6.808</ele>
        <time>2019-03-02T15:36:02Z</time>
      </trkpt>
      <trkpt lat="43.47233" lon="-1.34703">
        <ele>7.08</ele>
        <time>2019-03-02T15:36:22Z</time>
      </trkpt>
      <trkpt lat="43.47184" lon="-1.34696">
        <ele>7.075</ele>
        <time>2019-03-02T15:36:42Z</time>
      </trkpt>
      <trkpt lat="43.47169" lon="-1.34718">
        <ele>7.059</ele>
        <time>2019-03-02T15:37:02Z</time>
      </trkpt>
      <trkpt lat="43.47184" lon="-1.34731">
        <ele>7.031</ele>
        <time>2019-03-02T15:37:22Z</time>
      </trkpt>
      <trkpt lat="43.47215" lon="-1.34737">
        <ele>7.01</ele>
        <time>2019-03-02T15:37:42Z</time>
      </trkpt>
      <trkpt lat="43.47268" lon="-1.34836">
        <ele>7.172</ele>
        <time>2019-03-02T15:38:02Z</time>
      </trkpt>
      <trkpt lat="43.47259" lon="-1.34874">
        <ele>7.385</ele>
        <time>2019-03-02T15:38:22Z</time>
      </trkpt>
      <trkpt lat="43.47187" lon="-1.34868">
        <ele>7.032</ele>
        <time>2019-03-02T15:38:42Z</time>
      </trkpt>
      <trkpt lat="43.4722" lon="-1.34954">
        <ele>7.086</ele>
        <time>2019-03-02T15:39:02Z</time>
      </trkpt>
      <trkpt lat="43.4717" lon="-1.35003">
        <ele>7.06</ele>
        <time>2019-03-02T15:39:22Z</time>
      </trkpt>
      <trkpt lat="43.47103" lon="-1.35016">
        <ele>7.026</ele>
        <time>2019-03-02T15:39:42Z</time>
      </trkpt>
      <trkpt lat="43.47077" lon="-1.34973">
        <ele>7.008</ele>
        <time>2019-03-02T15:40:02Z</time>
      </trkpt>
      <trkpt lat="43.4705" lon="-1.35065">
        <ele>7.084</ele>
        <time>2019-03-02T15:40:22Z</time>
      </trkpt>
      <trkpt lat="43.47094" lon="-1.35155">
        <ele>7.029</ele>
        <time>2019-03-02T15:40:42Z</time>
      </trkpt>
      <trkpt lat="43.47011" lon="-1.35248">
        <ele>7.043</ele>
        <time>2019-03-02T15:41:02Z</time>
      </trkpt>
      <trkpt lat="43.4703" lon="-1.35269">
        <ele>7.045</ele>
        <time>2019-03-02T15:41:22Z</time>
      </trkpt>
      <trkpt lat="43.47074" lon="-1.35274">
        <ele>7.094</ele>
        <time>2019-03-02T15:41:42Z</time>
      </trkpt>
      <trkpt lat="43.47046" lon="-1.35327">
        <ele>7.086</ele>
        <time>2019-03-02T15:42:02Z</time>
      </trkpt>
      <trkpt lat="43.47044" lon="-1.35383">
        <ele>7.869</ele>
        <time>2019-03-02T15:42:22Z</time>
      </trkpt>
      <trkpt lat="43.47091" lon="-1.35374">
        <ele>8.066</ele>
        <time>2019-03-02T15:42:42Z</time>
      </trkpt>
      <trkpt lat="43.4715" lon="-1.35372">
        <ele>8.422</ele>
        <time>2019-03-02T15:43:02Z</time>
      </trkpt>
      <trkpt lat="43.47178" lon="-1.35316">
        <ele>10.062</ele>
        <time>2019-03-02T15:43:22Z</time>
      </trkpt>
      <trkpt lat="43.47279" lon="-1.35338">
        <ele>31.008</ele>
        <time>2019-03-02T15:43:42Z</time>
      </trkpt>
      <trkpt lat="43.47285" lon="-1.35404">
        <ele>28.908</ele>
        <time>2019-03-02T15:44:02Z</time>
      </trkpt>
      <trkpt lat="43.47363" lon="-1.35608">
        <ele>24.998</ele>
        <time>2019-03-02T15:44:22Z</time>
      </trkpt>
      <trkpt lat="43.47371" lon="-1.35748">
        <ele>31.643</ele>
        <time>2019-03-02T15:44:42Z</time>
      </trkpt>
      <trkpt lat="43.47346" lon="-1.35881">
        <ele>36.927</ele>
        <time>2019-03-02T15:45:02Z</time>
      </trkpt>
      <trkpt lat="43.47376" lon="-1.3602">
        <ele>40.859</ele>
        <time>2019-03-02T15:45:22Z</time>
      </trkpt>
      <trkpt lat="43.47289" lon="-1.36533">
        <ele>51.668</ele>
        <time>2019-03-02T15:45:42Z</time>
      </trkpt>
      <trkpt lat="43.47158" lon="-1.36724">
        <ele>53.33</ele>
        <time>2019-03-02T15:46:02Z</time>
      </trkpt>
      <trkpt lat="43.475" lon="-1.37205">
        <ele>51.333</ele>
        <time>2019-03-02T15:46:22Z</time>
      </trkpt>
      <trkpt lat="43.47499" lon="-1.37342">
        <ele>52.95</ele>
        <time>2019-03-02T15:46:42Z</time>
      </trkpt>
      <trkpt lat="43.47507" lon="-1.37589">
        <ele>59.292</ele>
        <time>2019-03-02T15:47:02Z</time>
      </trkpt>
      <trkpt lat="43.47533" lon="-1.3766">
        <ele>59.973</ele>
        <time>2019-03-02T15:47:22Z</time>
      </trkpt>
      <trkpt lat="43.47689" lon="-1.37928">
        <ele>60.62</ele>
        <time>2019-03-02T15:47:42Z</time>
      </trkpt>
      <trkpt lat="43.47804" lon="-1.38093">
        <ele>63.808</ele>
        <time>2019-03-02T15:48:02Z</time>
      </trkpt>
      <trkpt lat="43.4788" lon="-1.38162">
        <ele>64.845</ele>
        <time>2019-03-02T15:48:22Z</time>
      </trkpt>
      <trkpt lat="43.47916" lon="-1.38228">
        <ele>64.34</ele>
        <time>2019-03-02T15:48:42Z</time>
      </trkpt>
      <trkpt lat="43.47941" lon="-1.38419">
        <ele>70.564</ele>
        <time>2019-03-02T15:49:02Z</time>
      </trkpt>
      <trkpt lat="43.48014" lon="-1.38713">
        <ele>71.796</ele>
        <time>2019-03-02T15:49:22Z</time>
      </trkpt>
      <trkpt lat="43.48153" lon="-1.38595">
        <ele>47.585</ele>
        <time>2019-03-02T15:49:42Z</time>
      </trkpt>
      <trkpt lat="43.48185" lon="-1.38509">
        <ele>37.757</ele>
        <time>2019-03-02T15:50:02Z</time>
      </trkpt>
      <trkpt lat="43.48251" lon="-1.38477">
        <ele>34.53</ele>
        <time>2019-03-02T15:50:22Z</time>
      </trkpt>
      <trkpt lat="43.48305" lon="-1.38419">
        <ele>28.557</ele>
        <time>2019-03-02T15:50:42Z</time>
      </trkpt>
      <trkpt lat="43.48397" lon="-1.38374">
        <ele>19.436</ele>
        <time>2019-03-02T15:51:02Z</time>
      </trkpt>
      <trkpt lat="43.48464" lon="-1.38363">
        <ele>17.717</ele>
        <time>2019-03-02T15:51:22Z</time>
      </trkpt>
      <trkpt lat="43.48612" lon="-1.38237">
        <ele>5.418</ele>
        <time>2019-03-02T15:51:42Z</time>
      </trkpt>
      <trkpt lat="43.48698" lon="-1.38331">
        <ele>3.508</ele>
        <time>2019-03-02T15:52:02Z</time>
      </trkpt>
      <trkpt lat="43.48693" lon="-1.38372">
        <ele>8.899</ele>
        <time>2019-03-02T15:52:22Z</time>
      </trkpt>
      <trkpt lat="43.48668" lon="-1.38417">
        <ele>16.274</ele>
        <time>2019-03-02T15:52:42Z</time>
      </trkpt>
      <trkpt lat="43.48701" lon="-1.38456">
        <ele>29.538</ele>
        <time>2019-03-02T15:53:02Z</time>
      </trkpt>
      <trkpt lat="43.48763" lon="-1.38475">
        <ele>40.59</ele>
        <time>2019-03-02T15:53:22Z</time>
      </trkpt>
      <trkpt lat="43.48733" lon="-1.38531">
        <ele>43.229</ele>
        <time>2019-03-02T15:53:42Z</time>
      </trkpt>
      <trkpt lat="43.48741" lon="-1.38627">
        <ele>39.911</ele>
        <time>2019-03-02T15:54:02Z</time>
      </trkpt>
      <trkpt lat="43.48709" lon="-1.38681">
        <ele>44.244</ele>
        <time>2019-03-02T15:54:22Z</time>
      </trkpt>
      <trkpt lat="43.48649" lon="-1.38687">
        <ele>41.411</ele>
        <time>2019-03-02T15:54:42Z</time>
      </trkpt>
      <trkpt lat="43.48626" lon="-1.38745">
        <ele>47.133</ele>
        <time>2019-03-02T15:55:02Z</time>
      </trkpt>
      <trkpt lat="43.48561" lon="-1.38823">
        <ele>57.423</ele>
        <time>2019-03-02T15:55:22Z</time>
      </trkpt>
      <trkpt lat="43.48581" lon="-1.38881">
        <ele>57.515</ele>
        <time>2019-03-02T15:55:42Z</time>
      </trkpt>
      <trkpt lat="43.48565" lon="-1.38984">
        <ele>58.908</ele>
        <time>2019-03-02T15:56:02Z</time>
      </trkpt>
      <trkpt lat="43.4852" lon="-1.3908">
        <ele>61.449</ele>
        <time>2019-03-02T15:56:22Z</time>
      </trkpt>
      <trkpt lat="43.48531" lon="-1.39224">
        <ele>61.174</ele>
        <time>2019-03-02T15:56:42Z</time>
      </trkpt>
      <trkpt lat="43.48556" lon="-1.39338">
        <ele>54.418</ele>
        <time>2019-03-02T15:57:02Z</time>
      </trkpt>
      <trkpt lat="43.48592" lon="-1.39396">
        <ele>47.11</ele>
        <time>2019-03-02T15:57:22Z</time>
      </trkpt>
      <trkpt lat="43.48651" lon="-1.39393">
        <ele>43.479</ele>
        <time>2019-03-02T15:57:42Z</time>
      </trkpt>
      <trkpt lat="43.48693" lon="-1.39361">
        <ele>38.331</ele>
        <time>2019-03-02T15:58:02Z</time>
      </trkpt>
      <trkpt lat="43.48776" lon="-1.39411">
        <ele>29.314</ele>
        <time>2019-03-02T15:58:22Z</time>
      </trkpt>
      <trkpt lat="43.48807" lon="-1.39488">
        <ele>22.821</ele>
        <time>2019-03-02T15:58:42Z</time>
      </trkpt>
      <trkpt lat="43.48849" lon="-1.39559">
        <ele>15.618</ele>
        <time>2019-03-02T15:59:02Z</time>
      </trkpt>
      <trkpt lat="43.48909" lon="-1.397">
        <ele>4.098</ele>
        <time>2019-03-02T15:59:22Z</time>
      </trkpt>
      <trkpt lat="43.4899" lon="-1.39808">
        <ele>2.017</ele>
        <time>2019-03-02T15:59:42Z</time>
      </trkpt>
      <trkpt lat="43.48941" lon="-1.39859">
        <ele>2.008</ele>
        <time>2019-03-02T16:00:02Z</time>
      </trkpt>
      <trkpt lat="43.48693" lon="-1.4029">
        <ele>2.027</ele>
        <time>2019-03-02T16:00:22Z</time>
      </trkpt>
      <trkpt lat="43.48618" lon="-1.40466">
        <ele>2.042</ele>
        <time>2019-03-02T16:00:42Z</time>
      </trkpt>
      <trkpt lat="43.48547" lon="-1.40717">
        <ele>2.036</ele>
        <time>2019-03-02T16:01:02Z</time>
      </trkpt>
      <trkpt lat="43.48411" lon="-1.41256">
        <ele>2.228</ele>
        <time>2019-03-02T16:01:22Z</time>
      </trkpt>
      <trkpt lat="43.48403" lon="-1.41335">
        <ele>2.097</ele>
        <time>2019-03-02T16:01:42Z</time>
      </trkpt>
      <trkpt lat="43.48355" lon="-1.41331">
        <ele>2.019</ele>
        <time>2019-03-02T16:02:02Z</time>
      </trkpt>
      <trkpt lat="43.48298" lon="-1.41554">
        <ele>2.032</ele>
        <time>2019-03-02T16:02:22Z</time>
      </trkpt>
      <trkpt lat="43.48218" lon="-1.41507">
        <ele>2.099</ele>
        <time>2019-03-02T16:02:42Z</time>
      </trkpt>
      <trkpt lat="43.48126" lon="-1.41573">
        <ele>3.551</ele>
        <time>2019-03-02T16:03:02Z</time>
      </trkpt>
      <trkpt lat="43.48087" lon="-1.4161">
        <ele>4.001</ele>
        <time>2019-03-02T16:03:22Z</time>
      </trkpt>
      <trkpt lat="43.48041" lon="-1.41638">
        <ele>6.011</ele>
        <time>2019-03-02T16:03:42Z</time>
      </trkpt>
      <trkpt lat="43.47966" lon="-1.41702">
        <ele>17.808</ele>
        <time>2019-03-02T16:04:02Z</time>
      </trkpt>
      <trkpt lat="43.47774" lon="-1.41775">
        <ele>49.131</ele>
        <time>2019-03-02T16:04:22Z</time>
      </trkpt>
      <trkpt lat="43.47795" lon="-1.41891">
        <ele>49.326</ele>
        <time>2019-03-02T16:04:42Z</time>
      </trkpt>
      <trkpt lat="43.47812" lon="-1.41915">
        <ele>47.93</ele>
        <time>2019-03-02T16:05:02Z</time>
      </trkpt>
      <trkpt lat="43.47813" lon="-1.42013">
        <ele>45.732</ele>
        <time>2019-03-02T16:05:22Z</time>
      </trkpt>
      <trkpt lat="43.47835" lon="-1.42093">
        <ele>45.871</ele>
        <time>2019-03-02T16:05:42Z</time>
      </trkpt>
      <trkpt lat="43.47841" lon="-1.42256">
        <ele>44.313</ele>
        <time>2019-03-02T16:06:02Z</time>
      </trkpt>
      <trkpt lat="43.47807" lon="-1.42421">
        <ele>45.226</ele>
        <time>2019-03-02T16:06:22Z</time>
      </trkpt>
      <trkpt lat="43.47815" lon="-1.42522">
        <ele>41.683</ele>
        <time>2019-03-02T16:06:42Z</time>
      </trkpt>
      <trkpt lat="43.47815" lon="-1.42593">
        <ele>34.496</ele>
        <time>2019-03-02T16:07:02Z</time>
      </trkpt>
      <trkpt lat="43.47891" lon="-1.42698">
        <ele>25.631</ele>
        <time>2019-03-02T16:07:22Z</time>
      </trkpt>
      <trkpt lat="43.47872" lon="-1.42719">
        <ele>18.124</ele>
        <time>2019-03-02T16:07:42Z</time>
      </trkpt>
      <trkpt lat="43.47846" lon="-1.42709">
        <ele>16.608</ele>
        <time>2019-03-02T16:08:02Z</time>
      </trkpt>
      <trkpt lat="43.47815" lon="-1.42749">
        <ele>14.795</ele>
        <time>2019-03-02T16:08:22Z</time>
      </trkpt>
      <trkpt lat="43.47866" lon="-1.42803">
        <ele>19.37</ele>
        <time>2019-03-02T16:08:42Z</time>
      </trkpt>
      <trkpt lat="43.47877" lon="-1.4285">
        <ele>27.194</ele>
        <time>2019-03-02T16:09:02Z</time>
      </trkpt>
      <trkpt lat="43.47882" lon="-1.42998">
        <ele>32.776</ele>
        <time>2019-03-02T16:09:22Z</time>
      </trkpt>
      <trkpt lat="43.47916" lon="-1.43091">
        <ele>35.185</ele>
        <time>2019-03-02T16:09:42Z</time>
      </trkpt>
      <trkpt lat="43.47936" lon="-1.43196">
        <ele>41.927</ele>
        <time>2019-03-02T16:10:02Z</time>
      </trkpt>
      <trkpt lat="43.4793" lon="-1.43264">
        <ele>45.67</ele>
        <time>2019-03-02T16:10:22Z</time>
      </trkpt>
      <trkpt lat="43.47943" lon="-1.43329">
        <ele>46.157</ele>
        <time>2019-03-02T16:10:42Z</time>
      </trkpt>
      <trkpt lat="43.47943" lon="-1.43387">
        <ele>46.212</ele>
        <time>2019-03-02T16:11:02Z</time>
      </trkpt>
      <trkpt lat="43.47862" lon="-1.43329">
        <ele>56.032</ele>
        <time>2019-03-02T16:11:22Z</time>
      </trkpt>
      <trkpt lat="43.47743" lon="-1.43256">
        <ele>62.105</ele>
        <time>2019-03-02T16:11:42Z</time>
      </trkpt>
      <trkpt lat="43.47703" lon="-1.43245">
        <ele>59.008</ele>
        <time>2019-03-02T16:12:02Z</time>
      </trkpt>
      <trkpt lat="43.47667" lon="-1.43221">
        <ele>56.057</ele>
        <time>2019-03-02T16:12:22Z</time>
      </trkpt>
      <trkpt lat="43.47636" lon="-1.43194">
        <ele>55.282</ele>
        <time>2019-03-02T16:12:42Z</time>
      </trkpt>
      <trkpt lat="43.47531" lon="-1.43131">
        <ele>65.076</ele>
        <time>2019-03-02T16:13:02Z</time>
      </trkpt>
      <trkpt lat="43.4739" lon="-1.43099">
        <ele>75.188</ele>
        <time>2019-03-02T16:13:22Z</time>
      </trkpt>
      <trkpt lat="43.47295" lon="-1.4305">
        <ele>86.477</ele>
        <time>2019-03-02T16:13:42Z</time>
      </trkpt>
      <trkpt lat="43.47242" lon="-1.42968">
        <ele>91.999</ele>
        <time>2019-03-02T16:14:02Z</time>
      </trkpt>
      <trkpt lat="43.47178" lon="-1.42897">
        <ele>98.012</ele>
        <time>2019-03-02T16:14:22Z</time>
      </trkpt>
      <trkpt lat="43.47127" lon="-1.42807">
        <ele>101.969</ele>
        <time>2019-03-02T16:14:42Z</time>
      </trkpt>
      <trkpt lat="43.47013" lon="-1.42734">
        <ele>102.451</ele>
        <time>2019-03-02T16:15:02Z</time>
      </trkpt>
      <trkpt lat="43.46986" lon="-1.42676">
        <ele>99.801</ele>
        <time>2019-03-02T16:15:22Z</time>
      </trkpt>
      <trkpt lat="43.46849" lon="-1.42342">
        <ele>95.211</ele>
        <time>2019-03-02T16:15:42Z</time>
      </trkpt>
      <trkpt lat="43.46821" lon="-1.42159">
        <ele>99.708</ele>
        <time>2019-03-02T16:16:02Z</time>
      </trkpt>
      <trkpt lat="43.46748" lon="-1.41923">
        <ele>110.451</ele>
        <time>2019-03-02T16:16:22Z</time>
      </trkpt>
      <trkpt lat="43.46717" lon="-1.41631">
        <ele>119.996</ele>
        <time>2019-03-02T16:16:42Z</time>
      </trkpt>
      <trkpt lat="43.46636" lon="-1.41475">
        <ele>114.54</ele>
        <time>2019-03-02T16:17:02Z</time>
      </trkpt>
      <trkpt lat="43.46616" lon="-1.41387">
        <ele>106.492</ele>
        <time>2019-03-02T16:17:22Z</time>
      </trkpt>
      <trkpt lat="43.46493" lon="-1.41277">
        <ele>93.051</ele>
        <time>2019-03-02T16:17:42Z</time>
      </trkpt>
      <trkpt lat="43.46465" lon="-1.41224">
        <ele>88.253</ele>
        <time>2019-03-02T16:18:02Z</time>
      </trkpt>
      <trkpt lat="43.46466" lon="-1.41127">
        <ele>89.896</ele>
        <time>2019-03-02T16:18:22Z</time>
      </trkpt>
      <trkpt lat="43.46406" lon="-1.4099">
        <ele>89.643</ele>
        <time>2019-03-02T16:18:42Z</time>
      </trkpt>
      <trkpt lat="43.46314" lon="-1.40812">
        <ele>79.883</ele>
        <time>2019-03-02T16:19:02Z</time>
      </trkpt>
      <trkpt lat="43.46269" lon="-1.40801">
        <ele>80.225</ele>
        <time>2019-03-02T16:19:22Z</time>
      </trkpt>
      <trkpt lat="43.46138" lon="-1.40853">
        <ele>89.817</ele>
        <time>2019-03-02T16:19:42Z</time>
      </trkpt>
      <trkpt lat="43.46038" lon="-1.40983">
        <ele>98.108</ele>
        <time>2019-03-02T16:20:02Z</time>
      </trkpt>
      <trkpt lat="43.45923" lon="-1.41052">
        <ele>101.314</ele>
        <time>2019-03-02T16:20:22Z</time>
      </trkpt>
      <trkpt lat="43.4587" lon="-1.41138">
        <ele>94.879</ele>
        <time>2019-03-02T16:20:42Z</time>
      </trkpt>
      <trkpt lat="43.4585" lon="-1.41217">
        <ele>92.243</ele>
        <time>2019-03-02T16:21:02Z</time>
      </trkpt>
      <trkpt lat="43.45789" lon="-1.41271">
        <ele>81.755</ele>
        <time>2019-03-02T16:21:22Z</time>
      </trkpt>
      <trkpt lat="43.45753" lon="-1.4147">
        <ele>69.574</ele>
        <time>2019-03-02T16:21:42Z</time>
      </trkpt>
      <trkpt lat="43.45709" lon="-1.41528">
        <ele>62.956</ele>
        <time>2019-03-02T16:22:02Z</time>
      </trkpt>
      <trkpt lat="43.45561" lon="-1.41593">
        <ele>66.549</ele>
        <time>2019-03-02T16:22:22Z</time>
      </trkpt>
      <trkpt lat="43.4541" lon="-1.41614">
        <ele>82.016</ele>
        <time>2019-03-02T16:22:42Z</time>
      </trkpt>
      <trkpt lat="43.45374" lon="-1.41634">
        <ele>85.959</ele>
        <time>2019-03-02T16:23:02Z</time>
      </trkpt>
      <trkpt lat="43.45387" lon="-1.417">
        <ele>93.403</ele>
        <time>2019-03-02T16:23:22Z</time>
      </trkpt>
      <trkpt lat="43.4541" lon="-1.41749">
        <ele>97.923</ele>
        <time>2019-03-02T16:23:42Z</time>
      </trkpt>
      <trkpt lat="43.45431" lon="-1.41981">
        <ele>117.708</ele>
        <time>2019-03-02T16:24:02Z</time>
      </trkpt>
      <trkpt lat="43.4541" lon="-1.42041">
        <ele>119.761</ele>
        <time>2019-03-02T16:24:22Z</time>
      </trkpt>
      <trkpt lat="43.45466" lon="-1.42189">
        <ele>109.456</ele>
        <time>2019-03-02T16:24:42Z</time>
      </trkpt>
      <trkpt lat="43.45473" lon="-1.42297">
        <ele>109.35</ele>
        <time>2019-03-02T16:25:02Z</time>
      </trkpt>
      <trkpt lat="43.45449" lon="-1.42279">
        <ele>114.742</ele>
        <time>2019-03-02T16:25:22Z</time>
      </trkpt>
      <trkpt lat="43.4544" lon="-1.42314">
        <ele>116.581</ele>
        <time>2019-03-02T16:25:42Z</time>
      </trkpt>
      <trkpt lat="43.45407" lon="-1.42252">
        <ele>125.173</ele>
        <time>2019-03-02T16:26:02Z</time>
      </trkpt>
      <trkpt lat="43.45376" lon="-1.42292">
        <ele>132.276</ele>
        <time>2019-03-02T16:26:22Z</time>
      </trkpt>
      <trkpt lat="43.45287" lon="-1.42301">
        <ele>135.543</ele>
        <time>2019-03-02T16:26:42Z</time>
      </trkpt>
      <trkpt lat="43.45247" lon="-1.42267">
        <ele>135.421</ele>
        <time>2019-03-02T16:27:02Z</time>
      </trkpt>
      <trkpt lat="43.45096" lon="-1.42284">
        <ele>137.141</ele>
        <time>2019-03-02T16:27:22Z</time>
      </trkpt>
      <trkpt lat="43.45054" lon="-1.42318">
        <ele>132.905</ele>
        <time>2019-03-02T16:27:42Z</time>
      </trkpt>
      <trkpt lat="43.44996" lon="-1.42226">
        <ele>138.908</ele>
        <time>2019-03-02T16:28:02Z</time>
      </trkpt>
      <trkpt lat="43.44965" lon="-1.42024">
        <ele>132.988</ele>
        <time>2019-03-02T16:28:22Z</time>
      </trkpt>
      <trkpt lat="43.44882" lon="-1.41975">
        <ele>125.753</ele>
        <time>2019-03-02T16:28:42Z</time>
      </trkpt>
      <trkpt lat="43.44806" lon="-1.41985">
        <ele>128.427</ele>
        <time>2019-03-02T16:29:02Z</time>
      </trkpt>
      <trkpt lat="43.44692" lon="-1.42011">
        <ele>133.799</ele>
        <time>2019-03-02T16:29:22Z</time>
      </trkpt>
      <trkpt lat="43.44544" lon="-1.42157">
        <ele>121.018</ele>
        <time>2019-03-02T16:29:42Z</time>
      </trkpt>
      <trkpt lat="43.44335" lon="-1.42303">
        <ele>124.75</ele>
        <time>2019-03-02T16:30:02Z</time>
      </trkpt>
      <trkpt lat="43.44329" lon="-1.42342">
        <ele>127.543</ele>
        <time>2019-03-02T16:30:22Z</time>
      </trkpt>
      <trkpt lat="43.44295" lon="-1.42402">
        <ele>130.04</ele>
        <time>2019-03-02T16:30:42Z</time>
      </trkpt>
      <trkpt lat="43.44282" lon="-1.4253">
        <ele>120.685</ele>
        <time>2019-03-02T16:31:02Z</time>
      </trkpt>
      <trkpt lat="43.4422" lon="-1.42653">
        <ele>110.789</ele>
        <time>2019-03-02T16:31:22Z</time>
      </trkpt>
      <trkpt lat="43.44231" lon="-1.42822">
        <ele>87.617</ele>
        <time>2019-03-02T16:31:42Z</time>
      </trkpt>
      <trkpt lat="43.44172" lon="-1.42951">
        <ele>65.108</ele>
        <time>2019-03-02T16:32:02Z</time>
      </trkpt>
      <trkpt lat="43.44106" lon="-1.42762">
        <ele>75.594</ele>
        <time>2019-03-02T16:32:22Z</time>
      </trkpt>
      <trkpt lat="43.44077" lon="-1.42764">
        <ele>75.489</ele>
        <time>2019-03-02T16:32:42Z</time>
      </trkpt>
      <trkpt lat="43.43988" lon="-1.42711">
        <ele>95.693</ele>
        <time>2019-03-02T16:33:02Z</time>
      </trkpt>
      <trkpt lat="43.43965" lon="-1.42743">
        <ele>96.875</ele>
        <time>2019-03-02T16:33:22Z</time>
      </trkpt>
      <trkpt lat="43.43946" lon="-1.42741">
        <ele>100.754</ele>
        <time>2019-03-02T16:33:42Z</time>
      </trkpt>
      <trkpt lat="43.43947" lon="-1.42827">
        <ele>103.346</ele>
        <time>2019-03-02T16:34:02Z</time>
      </trkpt>
      <trkpt lat="43.43904" lon="-1.42893">
        <ele>104.249</ele>
        <time>2019-03-02T16:34:22Z</time>
      </trkpt>
      <trkpt lat="43.43812" lon="-1.42977">
        <ele>93.666</ele>
        <time>2019-03-02T16:34:42Z</time>
      </trkpt>
      <trkpt lat="43.43762" lon="-1.43054">
        <ele>81.012</ele>
        <time>2019-03-02T16:35:02Z</time>
      </trkpt>
      <trkpt lat="43.43667" lon="-1.43236">
        <ele>43.032</ele>
        <time>2019-03-02T16:35:22Z</time>
      </trkpt>
      <trkpt lat="43.43594" lon="-1.43243">
        <ele>35.505</ele>
        <time>2019-03-02T16:35:42Z</time>
      </trkpt>
      <trkpt lat="43.43542" lon="-1.43367">
        <ele>42.508</ele>
        <time>2019-03-02T16:36:02Z</time>
      </trkpt>
      <trkpt lat="43.43555" lon="-1.4353">
        <ele>63.257</ele>
        <time>2019-03-02T16:36:22Z</time>
      </trkpt>
      <trkpt lat="43.43555" lon="-1.43655">
        <ele>73.222</ele>
        <time>2019-03-02T16:36:42Z</time>
      </trkpt>
      <trkpt lat="43.43523" lon="-1.43654">
        <ele>78.686</ele>
        <time>2020-12-02T15:13:52Z</time>
      </trkpt>
      <trkpt lat="43.4349" lon="-1.43667">
        <ele>82.918</ele>
        <time>2020-12-02T15:14:12Z</time>
      </trkpt>
      <trkpt lat="43.43472" lon="-1.43774">
        <ele>94.897</ele>
        <time>2020-12-02T15:14:32Z</time>
      </trkpt>
      <trkpt lat="43.43481" lon="-1.43837">
        <ele>98.289</ele>
        <time>2020-12-02T15:14:52Z</time>
      </trkpt>
      <trkpt lat="43.43404" lon="-1.43878">
        <ele>109.652</ele>
        <time>2020-12-02T15:15:12Z</time>
      </trkpt>
      <trkpt lat="43.43371" lon="-1.43906">
        <ele>108.549</ele>
        <time>2020-12-02T15:15:32Z</time>
      </trkpt>
      <trkpt lat="43.433" lon="-1.43901">
        <ele>101.336</ele>
        <time>2020-12-02T15:15:52Z</time>
      </trkpt>
      <trkpt lat="43.43253" lon="-1.43775">
        <ele>96.017</ele>
        <time>2019-03-02T16:40:22Z</time>
      </trkpt>
      <trkpt lat="43.43207" lon="-1.43734">
        <ele>95.018</ele>
        <time>2019-03-02T16:40:42Z</time>
      </trkpt>
      <trkpt lat="43.43089" lon="-1.43674">
        <ele>100.108</ele>
        <time>2019-03-02T16:41:02Z</time>
      </trkpt>
      <trkpt lat="43.42964" lon="-1.43575">
        <ele>111.249</ele>
        <time>2019-03-02T16:41:22Z</time>
      </trkpt>
      <trkpt lat="43.42935" lon="-1.43498">
        <ele>114.974</ele>
        <time>2019-03-02T16:41:42Z</time>
      </trkpt>
      <trkpt lat="43.4286" lon="-1.43438">
        <ele>110.618</ele>
        <time>2019-03-02T16:42:02Z</time>
      </trkpt>
      <trkpt lat="43.42824" lon="-1.43432">
        <ele>105.06</ele>
        <time>2019-03-02T16:42:22Z</time>
      </trkpt>
      <trkpt lat="43.42821" lon="-1.43337">
        <ele>105.099</ele>
        <time>2019-03-02T16:42:42Z</time>
      </trkpt>
      <trkpt lat="43.42796" lon="-1.43258">
        <ele>105.511</ele>
        <time>2019-03-02T16:43:02Z</time>
      </trkpt>
      <trkpt lat="43.42743" lon="-1.4323">
        <ele>104.534</ele>
        <time>2019-03-02T16:43:22Z</time>
      </trkpt>
      <trkpt lat="43.42559" lon="-1.4306">
        <ele>92.571</ele>
        <time>2019-03-02T16:43:42Z</time>
      </trkpt>
      <trkpt lat="43.42428" lon="-1.42936">
        <ele>81.378</ele>
        <time>2019-03-02T16:44:02Z</time>
      </trkpt>
      <trkpt lat="43.42205" lon="-1.42717">
        <ele>87.933</ele>
        <time>2019-03-02T16:44:22Z</time>
      </trkpt>
      <trkpt lat="43.42109" lon="-1.42719">
        <ele>95.626</ele>
        <time>2019-03-02T16:44:42Z</time>
      </trkpt>
      <trkpt lat="43.42029" lon="-1.42404">
        <ele>110.808</ele>
        <time>2019-03-02T16:45:02Z</time>
      </trkpt>
      <trkpt lat="43.42018" lon="-1.42307">
        <ele>113.253</ele>
        <time>2019-03-02T16:45:22Z</time>
      </trkpt>
      <trkpt lat="43.42001" lon="-1.4226">
        <ele>118.838</ele>
        <time>2019-03-02T16:45:42Z</time>
      </trkpt>
      <trkpt lat="43.41887" lon="-1.42226">
        <ele>119.772</ele>
        <time>2019-03-02T16:46:02Z</time>
      </trkpt>
      <trkpt lat="43.41839" lon="-1.42151">
        <ele>120.964</ele>
        <time>2019-03-02T16:46:22Z</time>
      </trkpt>
      <trkpt lat="43.41811" lon="-1.42076">
        <ele>122.623</ele>
        <time>2019-03-02T16:46:42Z</time>
      </trkpt>
      <trkpt lat="43.41814" lon="-1.42024">
        <ele>118.295</ele>
        <time>2019-03-02T16:47:02Z</time>
      </trkpt>
      <trkpt lat="43.41778" lon="-1.41943">
        <ele>112.818</ele>
        <time>2019-03-02T16:47:22Z</time>
      </trkpt>
      <trkpt lat="43.41766" lon="-1.41855">
        <ele>113.215</ele>
        <time>2019-03-02T16:47:42Z</time>
      </trkpt>
      <trkpt lat="43.417" lon="-1.41773">
        <ele>114.627</ele>
        <time>2019-03-02T16:48:02Z</time>
      </trkpt>
      <trkpt lat="43.41608" lon="-1.4173">
        <ele>109.668</ele>
        <time>2019-03-02T16:48:22Z</time>
      </trkpt>
      <trkpt lat="43.41485" lon="-1.41734">
        <ele>113.114</ele>
        <time>2019-03-02T16:48:42Z</time>
      </trkpt>
      <trkpt lat="43.41378" lon="-1.41702">
        <ele>115.908</ele>
        <time>2019-03-02T16:49:02Z</time>
      </trkpt>
      <trkpt lat="43.41275" lon="-1.41619">
        <ele>120.778</ele>
        <time>2019-03-02T16:49:22Z</time>
      </trkpt>
      <trkpt lat="43.41206" lon="-1.41533">
        <ele>124.323</ele>
        <time>2019-03-02T16:49:42Z</time>
      </trkpt>
      <trkpt lat="43.41163" lon="-1.41507">
        <ele>127.167</ele>
        <time>2019-03-02T16:50:02Z</time>
      </trkpt>
      <trkpt lat="43.41088" lon="-1.41548">
        <ele>125.729</ele>
        <time>2019-03-02T16:50:22Z</time>
      </trkpt>
      <trkpt lat="43.41016" lon="-1.41567">
        <ele>125.058</ele>
        <time>2019-03-02T16:50:42Z</time>
      </trkpt>
      <trkpt lat="43.40938" lon="-1.41646">
        <ele>123.53</ele>
        <time>2019-03-02T16:51:02Z</time>
      </trkpt>
      <trkpt lat="43.40921" lon="-1.41734">
        <ele>118.253</ele>
        <time>2019-03-02T16:51:22Z</time>
      </trkpt>
      <trkpt lat="43.40891" lon="-1.4182">
        <ele>112.81</ele>
        <time>2019-03-02T16:51:42Z</time>
      </trkpt>
      <trkpt lat="43.40933" lon="-1.42166">
        <ele>101.879</ele>
        <time>2019-03-02T16:52:02Z</time>
      </trkpt>
      <trkpt lat="43.40874" lon="-1.42232">
        <ele>93.505</ele>
        <time>2019-03-02T16:52:22Z</time>
      </trkpt>
      <trkpt lat="43.40851" lon="-1.42303">
        <ele>91.725</ele>
        <time>2019-03-02T16:52:42Z</time>
      </trkpt>
      <trkpt lat="43.40809" lon="-1.42344">
        <ele>84.008</ele>
        <time>2019-03-02T16:53:02Z</time>
      </trkpt>
      <trkpt lat="43.4079" lon="-1.42395">
        <ele>83.743</ele>
        <time>2019-03-02T16:53:22Z</time>
      </trkpt>
      <trkpt lat="43.40737" lon="-1.42475">
        <ele>84.528</ele>
        <time>2019-03-02T16:53:42Z</time>
      </trkpt>
      <trkpt lat="43.40695" lon="-1.42505">
        <ele>82.932</ele>
        <time>2019-03-02T16:54:02Z</time>
      </trkpt>
      <trkpt lat="43.40637" lon="-1.42597">
        <ele>86.794</ele>
        <time>2019-03-02T16:54:22Z</time>
      </trkpt>
      <trkpt lat="43.40559" lon="-1.42629">
        <ele>83.993</ele>
        <time>2019-03-02T16:54:42Z</time>
      </trkpt>
      <trkpt lat="43.40503" lon="-1.42691">
        <ele>83.165</ele>
        <time>2019-03-02T16:55:02Z</time>
      </trkpt>
      <trkpt lat="43.40441" lon="-1.42704">
        <ele>80.118</ele>
        <time>2019-03-02T16:55:22Z</time>
      </trkpt>
      <trkpt lat="43.40377" lon="-1.42743">
        <ele>80.035</ele>
        <time>2019-03-02T16:55:42Z</time>
      </trkpt>
      <trkpt lat="43.4035" lon="-1.42777">
        <ele>81.626</ele>
        <time>2019-03-02T16:56:02Z</time>
      </trkpt>
      <trkpt lat="43.40287" lon="-1.42788">
        <ele>81.147</ele>
        <time>2019-03-02T16:56:22Z</time>
      </trkpt>
      <trkpt lat="43.40234" lon="-1.42779">
        <ele>80.611</ele>
        <time>2019-03-02T16:56:42Z</time>
      </trkpt>
      <trkpt lat="43.40157" lon="-1.42835">
        <ele>86.708</ele>
        <time>2019-03-02T16:57:02Z</time>
      </trkpt>
      <trkpt lat="43.40179" lon="-1.42835">
        <ele>87.328</ele>
        <time>2019-03-02T16:57:22Z</time>
      </trkpt>
      <trkpt lat="43.40167" lon="-1.42859">
        <ele>91.693</ele>
        <time>2019-03-02T16:57:42Z</time>
      </trkpt>
      <trkpt lat="43.40193" lon="-1.4293">
        <ele>95.097</ele>
        <time>2019-03-02T16:58:02Z</time>
      </trkpt>
      <trkpt lat="43.40171" lon="-1.43">
        <ele>95.099</ele>
        <time>2019-03-02T16:58:22Z</time>
      </trkpt>
      <trkpt lat="43.40138" lon="-1.43048">
        <ele>94.058</ele>
        <time>2019-03-02T16:58:42Z</time>
      </trkpt>
      <trkpt lat="43.40026" lon="-1.42919">
        <ele>79.42</ele>
        <time>2019-03-02T16:59:02Z</time>
      </trkpt>
      <trkpt lat="43.40007" lon="-1.42877">
        <ele>78.993</ele>
        <time>2019-03-02T16:59:22Z</time>
      </trkpt>
      <trkpt lat="43.40011" lon="-1.42852">
        <ele>80.35</ele>
        <time>2019-03-02T16:59:42Z</time>
      </trkpt>
      <trkpt lat="43.39908" lon="-1.42807">
        <ele>70.134</ele>
        <time>2019-03-02T17:00:02Z</time>
      </trkpt>
      <trkpt lat="43.39861" lon="-1.42743">
        <ele>60.555</ele>
        <time>2019-03-02T17:00:22Z</time>
      </trkpt>
      <trkpt lat="43.39794" lon="-1.42631">
        <ele>46.91</ele>
        <time>2019-03-02T17:00:42Z</time>
      </trkpt>
      <trkpt lat="43.39661" lon="-1.42636">
        <ele>30.308</ele>
        <time>2019-03-02T17:01:02Z</time>
      </trkpt>
      <trkpt lat="43.39594" lon="-1.42736">
        <ele>23.789</ele>
        <time>2019-03-02T17:01:22Z</time>
      </trkpt>
      <trkpt lat="43.39499" lon="-1.42859">
        <ele>26.754</ele>
        <time>2019-03-02T17:01:42Z</time>
      </trkpt>
      <trkpt lat="43.39457" lon="-1.42846">
        <ele>37.718</ele>
        <time>2019-03-02T17:02:02Z</time>
      </trkpt>
      <trkpt lat="43.39418" lon="-1.42767">
        <ele>53.05</ele>
        <time>2019-03-02T17:02:22Z</time>
      </trkpt>
      <trkpt lat="43.39381" lon="-1.42784">
        <ele>55.129</ele>
        <time>2019-03-02T17:02:42Z</time>
      </trkpt>
      <trkpt lat="43.39309" lon="-1.42784">
        <ele>62.311</ele>
        <time>2019-03-02T17:03:02Z</time>
      </trkpt>
      <trkpt lat="43.39264" lon="-1.42752">
        <ele>65.894</ele>
        <time>2019-03-02T17:03:22Z</time>
      </trkpt>
      <trkpt lat="43.39117" lon="-1.42833">
        <ele>66.231</ele>
        <time>2019-03-02T17:03:42Z</time>
      </trkpt>
      <trkpt lat="43.39061" lon="-1.42734">
        <ele>68.955</ele>
        <time>2019-03-02T17:04:02Z</time>
      </trkpt>
      <trkpt lat="43.38994" lon="-1.42882">
        <ele>65.007</ele>
        <time>2019-03-02T17:04:22Z</time>
      </trkpt>
      <trkpt lat="43.38947" lon="-1.42936">
        <ele>65.017</ele>
        <time>2019-03-02T17:04:42Z</time>
      </trkpt>
      <trkpt lat="43.38899" lon="-1.42921">
        <ele>65.008</ele>
        <time>2019-03-02T17:05:02Z</time>
      </trkpt>
      <trkpt lat="43.38819" lon="-1.4287">
        <ele>66.381</ele>
        <time>2019-03-02T17:05:22Z</time>
      </trkpt>
      <trkpt lat="43.38816" lon="-1.42764">
        <ele>69.356</ele>
        <time>2019-03-02T17:05:42Z</time>
      </trkpt>
      <trkpt lat="43.38759" lon="-1.42573">
        <ele>68.75</ele>
        <time>2019-03-02T17:06:02Z</time>
      </trkpt>
      <trkpt lat="43.38735" lon="-1.42578">
        <ele>67.372</ele>
        <time>2019-03-02T17:06:22Z</time>
      </trkpt>
      <trkpt lat="43.38651" lon="-1.42713">
        <ele>65.941</ele>
        <time>2019-03-02T17:06:42Z</time>
      </trkpt>
      <trkpt lat="43.38603" lon="-1.42728">
        <ele>68.153</ele>
        <time>2019-03-02T17:07:02Z</time>
      </trkpt>
      <trkpt lat="43.38559" lon="-1.42719">
        <ele>68.246</ele>
        <time>2019-03-02T17:07:22Z</time>
      </trkpt>
      <trkpt lat="43.38489" lon="-1.42749">
        <ele>66.023</ele>
        <time>2019-03-02T17:07:42Z</time>
      </trkpt>
      <trkpt lat="43.38444" lon="-1.42584">
        <ele>68.929</ele>
        <time>2019-03-02T17:08:02Z</time>
      </trkpt>
      <trkpt lat="43.38367" lon="-1.4252">
        <ele>65</ele>
        <time>2019-03-02T17:08:22Z</time>
      </trkpt>
      <trkpt lat="43.38305" lon="-1.42503">
        <ele>65.02</ele>
        <time>2019-03-02T17:08:42Z</time>
      </trkpt>
      <trkpt lat="43.38241" lon="-1.42576">
        <ele>62.608</ele>
        <time>2019-03-02T17:09:02Z</time>
      </trkpt>
      <trkpt lat="43.38227" lon="-1.42621">
        <ele>60.868</ele>
        <time>2019-03-02T17:09:22Z</time>
      </trkpt>
      <trkpt lat="43.38235" lon="-1.42696">
        <ele>53.933</ele>
        <time>2019-03-02T17:09:42Z</time>
      </trkpt>
      <trkpt lat="43.38211" lon="-1.42739">
        <ele>48.537</ele>
        <time>2019-03-02T17:10:02Z</time>
      </trkpt>
      <trkpt lat="43.38166" lon="-1.42739">
        <ele>51.049</ele>
        <time>2019-03-02T17:10:22Z</time>
      </trkpt>
      <trkpt lat="43.38085" lon="-1.42685">
        <ele>46.958</ele>
        <time>2019-03-02T17:10:42Z</time>
      </trkpt>
      <trkpt lat="43.3808" lon="-1.42642">
        <ele>47.52</ele>
        <time>2019-03-02T17:11:02Z</time>
      </trkpt>
      <trkpt lat="43.38129" lon="-1.42548">
        <ele>45.753</ele>
        <time>2019-03-02T17:11:22Z</time>
      </trkpt>
      <trkpt lat="43.38144" lon="-1.42485">
        <ele>36.84</ele>
        <time>2019-03-02T17:11:42Z</time>
      </trkpt>
      <trkpt lat="43.38119" lon="-1.4247">
        <ele>30.858</ele>
        <time>2019-03-02T17:12:02Z</time>
      </trkpt>
      <trkpt lat="43.38071" lon="-1.42541">
        <ele>27.552</ele>
        <time>2019-03-02T17:12:22Z</time>
      </trkpt>
      <trkpt lat="43.3793" lon="-1.42621">
        <ele>23.517</ele>
        <time>2019-03-02T17:12:42Z</time>
      </trkpt>
      <trkpt lat="43.37835" lon="-1.42627">
        <ele>31.708</ele>
        <time>2019-03-02T17:13:02Z</time>
      </trkpt>
      <trkpt lat="43.37718" lon="-1.42552">
        <ele>35.381</ele>
        <time>2019-03-02T17:13:22Z</time>
      </trkpt>
      <trkpt lat="43.37623" lon="-1.42468">
        <ele>35.636</ele>
        <time>2019-03-02T17:13:42Z</time>
      </trkpt>
      <trkpt lat="43.37566" lon="-1.42387">
        <ele>37.96</ele>
        <time>2019-03-02T17:14:02Z</time>
      </trkpt>
      <trkpt lat="43.37458" lon="-1.42359">
        <ele>20.072</ele>
        <time>2019-03-02T17:14:22Z</time>
      </trkpt>
      <trkpt lat="43.37417" lon="-1.42183">
        <ele>31.651</ele>
        <time>2019-03-02T17:14:42Z</time>
      </trkpt>
      <trkpt lat="43.3741" lon="-1.41988">
        <ele>37.513</ele>
        <time>2019-03-02T17:15:02Z</time>
      </trkpt>
      <trkpt lat="43.37389" lon="-1.41895">
        <ele>36.686</ele>
        <time>2019-03-02T17:15:22Z</time>
      </trkpt>
      <trkpt lat="43.37378" lon="-1.41779">
        <ele>36.193</ele>
        <time>2019-03-02T17:15:42Z</time>
      </trkpt>
      <trkpt lat="43.37361" lon="-1.41722">
        <ele>34.051</ele>
        <time>2019-03-02T17:16:02Z</time>
      </trkpt>
      <trkpt lat="43.37357" lon="-1.41623">
        <ele>34.201</ele>
        <time>2019-03-02T17:16:22Z</time>
      </trkpt>
      <trkpt lat="43.37367" lon="-1.41569">
        <ele>37.811</ele>
        <time>2019-03-02T17:16:42Z</time>
      </trkpt>
      <trkpt lat="43.37364" lon="-1.41335">
        <ele>30.508</ele>
        <time>2019-03-02T17:17:02Z</time>
      </trkpt>
      <trkpt lat="43.3738" lon="-1.41249">
        <ele>32.441</ele>
        <time>2019-03-02T17:17:22Z</time>
      </trkpt>
      <trkpt lat="43.37386" lon="-1.41089">
        <ele>26.516</ele>
        <time>2019-03-02T17:17:42Z</time>
      </trkpt>
      <trkpt lat="43.37342" lon="-1.40981">
        <ele>22.66</ele>
        <time>2019-03-02T17:18:02Z</time>
      </trkpt>
      <trkpt lat="43.3725" lon="-1.40762">
        <ele>17.212</ele>
        <time>2019-03-02T17:18:22Z</time>
      </trkpt>
      <trkpt lat="43.37254" lon="-1.40634">
        <ele>21.371</ele>
        <time>2019-03-02T17:18:42Z</time>
      </trkpt>
      <trkpt lat="43.37232" lon="-1.40486">
        <ele>19.693</ele>
        <time>2019-03-02T17:19:02Z</time>
      </trkpt>
      <trkpt lat="43.37204" lon="-1.4043">
        <ele>17.966</ele>
        <time>2019-03-02T17:19:22Z</time>
      </trkpt>
      <trkpt lat="43.37118" lon="-1.40237">
        <ele>20.023</ele>
        <time>2019-03-02T17:19:42Z</time>
      </trkpt>
      <trkpt lat="43.37035" lon="-1.40059">
        <ele>25.492</ele>
        <time>2019-03-02T17:20:02Z</time>
      </trkpt>
      <trkpt lat="43.36992" lon="-1.40099">
        <ele>25.173</ele>
        <time>2019-03-02T17:20:22Z</time>
      </trkpt>
      <trkpt lat="43.36907" lon="-1.40144">
        <ele>20.52</ele>
        <time>2019-03-02T17:20:42Z</time>
      </trkpt>
      <trkpt lat="43.36856" lon="-1.4011">
        <ele>20.808</ele>
        <time>2019-03-02T17:21:02Z</time>
      </trkpt>
      <trkpt lat="43.36812" lon="-1.40048">
        <ele>22.095</ele>
        <time>2019-03-02T17:21:22Z</time>
      </trkpt>
      <trkpt lat="43.36776" lon="-1.40067">
        <ele>21.08</ele>
        <time>2019-03-02T17:21:42Z</time>
      </trkpt>
      <trkpt lat="43.36697" lon="-1.40007">
        <ele>21.134</ele>
        <time>2019-03-02T17:22:02Z</time>
      </trkpt>
      <trkpt lat="43.36517" lon="-1.39941">
        <ele>18.686</ele>
        <time>2019-03-02T17:22:22Z</time>
      </trkpt>
      <trkpt lat="43.36432" lon="-1.39844">
        <ele>18.085</ele>
        <time>2019-03-02T17:22:42Z</time>
      </trkpt>
      <trkpt lat="43.36374" lon="-1.39797">
        <ele>16.127</ele>
        <time>2019-03-02T17:23:02Z</time>
      </trkpt>
      <trkpt lat="43.36368" lon="-1.39775">
        <ele>15.24</ele>
        <time>2019-03-02T17:23:22Z</time>
      </trkpt>
      <trkpt lat="43.3628" lon="-1.39752">
        <ele>24.167</ele>
        <time>2019-03-02T17:23:42Z</time>
      </trkpt>
      <trkpt lat="43.36268" lon="-1.39808">
        <ele>30.974</ele>
        <time>2019-03-02T17:24:02Z</time>
      </trkpt>
      <trkpt lat="43.36241" lon="-1.39865">
        <ele>51.356</ele>
        <time>2019-03-02T17:24:22Z</time>
      </trkpt>
      <trkpt lat="43.36233" lon="-1.39917">
        <ele>49.421</ele>
        <time>2020-12-02T16:00:32Z</time>
      </trkpt>
      <trkpt lat="43.36212" lon="-1.39893">
        <ele>53.508</ele>
        <time>2020-12-02T16:00:52Z</time>
      </trkpt>
      <trkpt lat="43.362" lon="-1.3986">
        <ele>55.623</ele>
        <time>2020-12-02T16:01:12Z</time>
      </trkpt>
      <trkpt lat="43.36172" lon="-1.39958">
        <ele>62.068</ele>
        <time>2020-12-02T16:01:32Z</time>
      </trkpt>
      <trkpt lat="43.36149" lon="-1.3999">
        <ele>61.082</ele>
        <time>2019-03-02T17:25:02Z</time>
      </trkpt>
      <trkpt lat="43.3612" lon="-1.3997">
        <ele>66.384</ele>
        <time>2020-12-02T16:02:12Z</time>
      </trkpt>
      <trkpt lat="43.36072" lon="-1.39959">
        <ele>68.963</ele>
        <time>2020-12-02T16:02:32Z</time>
      </trkpt>
      <trkpt lat="43.36075" lon="-1.39948">
        <ele>68.435</ele>
        <time>2020-12-02T16:02:52Z</time>
      </trkpt>
      <trkpt lat="43.36007" lon="-1.39917">
        <ele>63.068</ele>
        <time>2019-03-02T17:25:22Z</time>
      </trkpt>
      <trkpt lat="43.35948" lon="-1.40006">
        <ele>71.095</ele>
        <time>2020-12-02T16:03:32Z</time>
      </trkpt>
      <trkpt lat="43.35885" lon="-1.40039">
        <ele>70.545</ele>
        <time>2020-12-02T16:03:52Z</time>
      </trkpt>
      <trkpt lat="43.35905" lon="-1.40117">
        <ele>70.147</ele>
        <time>2020-12-02T16:04:12Z</time>
      </trkpt>
      <trkpt lat="43.35759" lon="-1.40088">
        <ele>68.311</ele>
        <time>2020-12-02T16:04:32Z</time>
      </trkpt>
      <trkpt lat="43.35722" lon="-1.40385">
        <ele>69.008</ele>
        <time>2019-03-02T17:27:02Z</time>
      </trkpt>
      <trkpt lat="43.35536" lon="-1.40475">
        <ele>74.43</ele>
        <time>2019-03-02T17:27:22Z</time>
      </trkpt>
      <trkpt lat="43.35489" lon="-1.40565">
        <ele>80.185</ele>
        <time>2019-03-02T17:27:42Z</time>
      </trkpt>
      <trkpt lat="43.35449" lon="-1.40526">
        <ele>80.549</ele>
        <time>2019-03-02T17:28:02Z</time>
      </trkpt>
      <trkpt lat="43.354" lon="-1.40552">
        <ele>87.951</ele>
        <time>2019-03-02T17:28:22Z</time>
      </trkpt>
      <trkpt lat="43.35385" lon="-1.40601">
        <ele>93.97</ele>
        <time>2019-03-02T17:28:42Z</time>
      </trkpt>
      <trkpt lat="43.354" lon="-1.40674">
        <ele>93.052</ele>
        <time>2019-03-02T17:29:02Z</time>
      </trkpt>
      <trkpt lat="43.35411" lon="-1.40752">
        <ele>89.835</ele>
        <time>2019-03-02T17:29:22Z</time>
      </trkpt>
      <trkpt lat="43.35355" lon="-1.40853">
        <ele>109.052</ele>
        <time>2019-03-02T17:29:42Z</time>
      </trkpt>
      <trkpt lat="43.353" lon="-1.41011">
        <ele>117.894</ele>
        <time>2019-03-02T17:30:02Z</time>
      </trkpt>
      <trkpt lat="43.35265" lon="-1.41056">
        <ele>126.357</ele>
        <time>2019-03-02T17:30:22Z</time>
      </trkpt>
      <trkpt lat="43.35243" lon="-1.41031">
        <ele>134.022</ele>
        <time>2019-03-02T17:30:42Z</time>
      </trkpt>
      <trkpt lat="43.35236" lon="-1.40943">
        <ele>139.008</ele>
        <time>2019-03-02T17:31:02Z</time>
      </trkpt>
      <trkpt lat="43.3518" lon="-1.40805">
        <ele>148.015</ele>
        <time>2019-03-02T17:31:22Z</time>
      </trkpt>
      <trkpt lat="43.35143" lon="-1.40825">
        <ele>149.65</ele>
        <time>2019-03-02T17:31:42Z</time>
      </trkpt>
      <trkpt lat="43.35088" lon="-1.40784">
        <ele>151.574</ele>
        <time>2019-03-02T17:32:02Z</time>
      </trkpt>
      <trkpt lat="43.35035" lon="-1.40792">
        <ele>138.166</ele>
        <time>2019-03-02T17:32:22Z</time>
      </trkpt>
      <trkpt lat="43.35015" lon="-1.40865">
        <ele>125.195</ele>
        <time>2019-03-02T17:32:42Z</time>
      </trkpt>
      <trkpt lat="43.34988" lon="-1.40975">
        <ele>104.517</ele>
        <time>2019-03-02T17:33:02Z</time>
      </trkpt>
      <trkpt lat="43.34935" lon="-1.40928">
        <ele>98.11</ele>
        <time>2019-03-02T17:33:22Z</time>
      </trkpt>
      <trkpt lat="43.34904" lon="-1.40795">
        <ele>102.277</ele>
        <time>2019-03-02T17:33:42Z</time>
      </trkpt>
      <trkpt lat="43.34871" lon="-1.40683">
        <ele>99.463</ele>
        <time>2019-03-02T17:34:02Z</time>
      </trkpt>
      <trkpt lat="43.34873" lon="-1.40638">
        <ele>102.444</ele>
        <time>2019-03-02T17:34:22Z</time>
      </trkpt>
      <trkpt lat="43.34862" lon="-1.40593">
        <ele>101.518</ele>
        <time>2019-03-02T17:34:42Z</time>
      </trkpt>
      <trkpt lat="43.34842" lon="-1.40567">
        <ele>98.108</ele>
        <time>2019-03-02T17:35:02Z</time>
      </trkpt>
      <trkpt lat="43.34786" lon="-1.40627">
        <ele>95.912</ele>
        <time>2019-03-02T17:35:22Z</time>
      </trkpt>
      <trkpt lat="43.34737" lon="-1.40636">
        <ele>102.277</ele>
        <time>2019-03-02T17:35:42Z</time>
      </trkpt>
      <trkpt lat="43.34697" lon="-1.40634">
        <ele>106.581</ele>
        <time>2019-03-02T17:36:02Z</time>
      </trkpt>
      <trkpt lat="43.34698" lon="-1.40679">
        <ele>111.553</ele>
        <time>2019-03-02T17:36:22Z</time>
      </trkpt>
      <trkpt lat="43.34644" lon="-1.40816">
        <ele>124.722</ele>
        <time>2019-03-02T17:36:42Z</time>
      </trkpt>
      <trkpt lat="43.34594" lon="-1.40801">
        <ele>128.244</ele>
        <time>2019-03-02T17:37:02Z</time>
      </trkpt>
      <trkpt lat="43.34572" lon="-1.40855">
        <ele>130.517</ele>
        <time>2019-03-02T17:37:22Z</time>
      </trkpt>
      <trkpt lat="43.34497" lon="-1.40964">
        <ele>120.574</ele>
        <time>2019-03-02T17:37:42Z</time>
      </trkpt>
      <trkpt lat="43.34502" lon="-1.41046">
        <ele>121.529</ele>
        <time>2019-03-02T17:38:02Z</time>
      </trkpt>
      <trkpt lat="43.34456" lon="-1.4105">
        <ele>114.8</ele>
        <time>2019-03-02T17:38:22Z</time>
      </trkpt>
      <trkpt lat="43.34409" lon="-1.41078">
        <ele>107.52</ele>
        <time>2019-03-02T17:38:42Z</time>
      </trkpt>
      <trkpt lat="43.34355" lon="-1.41086">
        <ele>106.108</ele>
        <time>2019-03-02T17:39:02Z</time>
      </trkpt>
      <trkpt lat="43.3432" lon="-1.41129">
        <ele>105.778</ele>
        <time>2019-03-02T17:39:22Z</time>
      </trkpt>
      <trkpt lat="43.34283" lon="-1.41149">
        <ele>107.683</ele>
        <time>2019-03-02T17:39:42Z</time>
      </trkpt>
      <trkpt lat="43.34168" lon="-1.41134">
        <ele>109.227</ele>
        <time>2019-03-02T17:40:02Z</time>
      </trkpt>
      <trkpt lat="43.3428" lon="-1.41226">
        <ele>98.659</ele>
        <time>2019-03-02T17:40:22Z</time>
      </trkpt>
      <trkpt lat="43.34341" lon="-1.41325">
        <ele>89.318</ele>
        <time>2019-03-02T17:40:42Z</time>
      </trkpt>
      <trkpt lat="43.34359" lon="-1.41393">
        <ele>84.02</ele>
        <time>2019-03-02T17:41:02Z</time>
      </trkpt>
      <trkpt lat="43.34389" lon="-1.41535">
        <ele>79.873</ele>
        <time>2019-03-02T17:41:22Z</time>
      </trkpt>
      <trkpt lat="43.34439" lon="-1.41683">
        <ele>76.67</ele>
        <time>2019-03-02T17:41:42Z</time>
      </trkpt>
      <trkpt lat="43.34391" lon="-1.41762">
        <ele>75.355</ele>
        <time>2019-03-02T17:42:02Z</time>
      </trkpt>
      <trkpt lat="43.34345" lon="-1.41737">
        <ele>79.607</ele>
        <time>2019-03-02T17:42:22Z</time>
      </trkpt>
      <trkpt lat="43.34271" lon="-1.41767">
        <ele>95.617</ele>
        <time>2019-03-02T17:42:42Z</time>
      </trkpt>
      <trkpt lat="43.34207" lon="-1.41882">
        <ele>122.308</ele>
        <time>2019-03-02T17:43:02Z</time>
      </trkpt>
      <trkpt lat="43.34185" lon="-1.41955">
        <ele>123.241</ele>
        <time>2019-03-02T17:43:22Z</time>
      </trkpt>
      <trkpt lat="43.34168" lon="-1.41915">
        <ele>129.066</ele>
        <time>2019-03-02T17:43:42Z</time>
      </trkpt>
      <trkpt lat="43.34086" lon="-1.41876">
        <ele>147.42</ele>
        <time>2019-03-02T17:44:02Z</time>
      </trkpt>
      <trkpt lat="43.33966" lon="-1.41893">
        <ele>161.242</ele>
        <time>2019-03-02T17:44:22Z</time>
      </trkpt>
      <trkpt lat="43.33807" lon="-1.41891">
        <ele>165.921</ele>
        <time>2019-03-02T17:44:42Z</time>
      </trkpt>
      <trkpt lat="43.33776" lon="-1.4194">
        <ele>169.143</ele>
        <time>2019-03-02T17:45:02Z</time>
      </trkpt>
      <trkpt lat="43.33746" lon="-1.42054">
        <ele>167.686</ele>
        <time>2019-03-02T17:45:22Z</time>
      </trkpt>
      <trkpt lat="43.33715" lon="-1.42136">
        <ele>166.833</ele>
        <time>2019-03-02T17:45:42Z</time>
      </trkpt>
      <trkpt lat="43.33718" lon="-1.42243">
        <ele>177.896</ele>
        <time>2019-03-02T17:46:02Z</time>
      </trkpt>
      <trkpt lat="43.33707" lon="-1.42432">
        <ele>176.031</ele>
        <time>2019-03-02T17:46:22Z</time>
      </trkpt>
      <trkpt lat="43.33681" lon="-1.42554">
        <ele>167.524</ele>
        <time>2019-03-02T17:46:42Z</time>
      </trkpt>
      <trkpt lat="43.33667" lon="-1.42687">
        <ele>175.308</ele>
        <time>2019-03-02T17:47:02Z</time>
      </trkpt>
      <trkpt lat="43.33715" lon="-1.4282">
        <ele>162.895</ele>
        <time>2019-03-02T17:47:22Z</time>
      </trkpt>
      <trkpt lat="43.33615" lon="-1.42882">
        <ele>162.95</ele>
        <time>2019-03-02T17:47:42Z</time>
      </trkpt>
      <trkpt lat="43.33568" lon="-1.42741">
        <ele>177.534</ele>
        <time>2019-03-02T17:48:02Z</time>
      </trkpt>
      <trkpt lat="43.33517" lon="-1.42668">
        <ele>183.686</ele>
        <time>2019-03-02T17:48:22Z</time>
      </trkpt>
      <trkpt lat="43.33509" lon="-1.42625">
        <ele>182.375</ele>
        <time>2019-03-02T17:48:42Z</time>
      </trkpt>
      <trkpt lat="43.33423" lon="-1.42653">
        <ele>173.957</ele>
        <time>2019-03-02T17:49:02Z</time>
      </trkpt>
      <trkpt lat="43.33411" lon="-1.42713">
        <ele>169.88</ele>
        <time>2019-03-02T17:49:22Z</time>
      </trkpt>
      <trkpt lat="43.33383" lon="-1.42756">
        <ele>163.817</ele>
        <time>2019-03-02T17:49:42Z</time>
      </trkpt>
      <trkpt lat="43.33359" lon="-1.42775">
        <ele>160.471</ele>
        <time>2019-03-02T17:50:02Z</time>
      </trkpt>
      <trkpt lat="43.33337" lon="-1.4282">
        <ele>165.541</ele>
        <time>2019-03-02T17:50:22Z</time>
      </trkpt>
      <trkpt lat="43.3329" lon="-1.42872">
        <ele>174.915</ele>
        <time>2019-03-02T17:50:42Z</time>
      </trkpt>
      <trkpt lat="43.33284" lon="-1.42912">
        <ele>180.208</ele>
        <time>2019-03-02T17:51:02Z</time>
      </trkpt>
      <trkpt lat="43.33339" lon="-1.43116">
        <ele>197.073</ele>
        <time>2019-03-02T17:51:22Z</time>
      </trkpt>
      <trkpt lat="43.33365" lon="-1.43288">
        <ele>191.378</ele>
        <time>2019-03-02T17:51:42Z</time>
      </trkpt>
      <trkpt lat="43.33365" lon="-1.43365">
        <ele>187.042</ele>
        <time>2019-03-02T17:52:02Z</time>
      </trkpt>
      <trkpt lat="43.33333" lon="-1.43382">
        <ele>189.974</ele>
        <time>2019-03-02T17:52:22Z</time>
      </trkpt>
      <trkpt lat="43.33284" lon="-1.43524">
        <ele>188.973</ele>
        <time>2019-03-02T17:52:42Z</time>
      </trkpt>
      <trkpt lat="43.33234" lon="-1.43464">
        <ele>195.295</ele>
        <time>2019-03-02T17:53:02Z</time>
      </trkpt>
      <trkpt lat="43.33197" lon="-1.43457">
        <ele>200.968</ele>
        <time>2019-03-02T17:53:22Z</time>
      </trkpt>
      <trkpt lat="43.33098" lon="-1.43666">
        <ele>197.595</ele>
        <time>2019-03-02T17:53:42Z</time>
      </trkpt>
      <trkpt lat="43.33048" lon="-1.43651">
        <ele>192.734</ele>
        <time>2020-12-02T16:31:52Z</time>
      </trkpt>
      <trkpt lat="43.32966" lon="-1.43686">
        <ele>177.055</ele>
        <time>2020-12-02T16:32:12Z</time>
      </trkpt>
      <trkpt lat="43.32924" lon="-1.43663">
        <ele>164.71</ele>
        <time>2020-12-02T16:32:32Z</time>
      </trkpt>
      <trkpt lat="43.32886" lon="-1.43732">
        <ele>157.108</ele>
        <time>2020-12-02T16:32:52Z</time>
      </trkpt>
      <trkpt lat="43.32886" lon="-1.43766">
        <ele>159.849</ele>
        <time>2020-12-02T16:33:12Z</time>
      </trkpt>
      <trkpt lat="43.32875" lon="-1.43782">
        <ele>159.334</ele>
        <time>2020-12-02T16:33:32Z</time>
      </trkpt>
      <trkpt lat="43.32842" lon="-1.43763">
        <ele>149.658</ele>
        <time>2020-12-02T16:33:52Z</time>
      </trkpt>
      <trkpt lat="43.32809" lon="-1.43728">
        <ele>141.51</ele>
        <time>2020-12-02T16:34:12Z</time>
      </trkpt>
      <trkpt lat="43.32793" lon="-1.43728">
        <ele>140.019</ele>
        <time>2020-12-02T16:34:32Z</time>
      </trkpt>
      <trkpt lat="43.32725" lon="-1.43684">
        <ele>134.211</ele>
        <time>2020-12-02T16:34:52Z</time>
      </trkpt>
      <trkpt lat="43.32657" lon="-1.43693">
        <ele>133.354</ele>
        <time>2020-12-02T16:35:12Z</time>
      </trkpt>
      <trkpt lat="43.32551" lon="-1.43741">
        <ele>148.991</ele>
        <time>2020-12-02T16:35:32Z</time>
      </trkpt>
      <trkpt lat="43.32478" lon="-1.43795">
        <ele>158.521</ele>
        <time>2020-12-02T16:35:52Z</time>
      </trkpt>
      <trkpt lat="43.32447" lon="-1.43865">
        <ele>153.741</ele>
        <time>2020-12-02T16:36:12Z</time>
      </trkpt>
      <trkpt lat="43.32415" lon="-1.43878">
        <ele>158.205</ele>
        <time>2020-12-02T16:36:32Z</time>
      </trkpt>
      <trkpt lat="43.32324" lon="-1.43899">
        <ele>157.408</ele>
        <time>2020-12-02T16:36:52Z</time>
      </trkpt>
      <trkpt lat="43.32289" lon="-1.43884">
        <ele>161.158</ele>
        <time>2020-12-02T16:37:12Z</time>
      </trkpt>
      <trkpt lat="43.32248" lon="-1.43849">
        <ele>168.373</ele>
        <time>2020-12-02T16:37:32Z</time>
      </trkpt>
      <trkpt lat="43.32234" lon="-1.43858">
        <ele>171.057</ele>
        <time>2020-12-02T16:37:52Z</time>
      </trkpt>
      <trkpt lat="43.32223" lon="-1.43915">
        <ele>166.239</ele>
        <time>2020-12-02T16:38:12Z</time>
      </trkpt>
      <trkpt lat="43.32182" lon="-1.43977">
        <ele>168.288</ele>
        <time>2020-12-02T16:38:32Z</time>
      </trkpt>
      <trkpt lat="43.32178" lon="-1.44028">
        <ele>163.03</ele>
        <time>2020-12-02T16:38:52Z</time>
      </trkpt>
      <trkpt lat="43.32145" lon="-1.44062">
        <ele>167.263</ele>
        <time>2020-12-02T16:39:12Z</time>
      </trkpt>
      <trkpt lat="43.32158" lon="-1.44115">
        <ele>159.46</ele>
        <time>2020-12-02T16:39:32Z</time>
      </trkpt>
      <trkpt lat="43.3212" lon="-1.44151">
        <ele>160.423</ele>
        <time>2020-12-02T16:39:52Z</time>
      </trkpt>
      <trkpt lat="43.32091" lon="-1.44182">
        <ele>158.883</ele>
        <time>2020-12-02T16:40:12Z</time>
      </trkpt>
      <trkpt lat="43.32071" lon="-1.44249">
        <ele>151.411</ele>
        <time>2020-12-02T16:40:32Z</time>
      </trkpt>
      <trkpt lat="43.32057" lon="-1.44261">
        <ele>153.408</ele>
        <time>2020-12-02T16:40:52Z</time>
      </trkpt>
      <trkpt lat="43.32034" lon="-1.44273">
        <ele>157.098</ele>
        <time>2020-12-02T16:41:12Z</time>
      </trkpt>
      <trkpt lat="43.32037" lon="-1.44347">
        <ele>144.523</ele>
        <time>2020-12-02T16:41:32Z</time>
      </trkpt>
      <trkpt lat="43.32097" lon="-1.4452">
        <ele>125.987</ele>
        <time>2020-12-02T16:41:52Z</time>
      </trkpt>
      <trkpt lat="43.32167" lon="-1.44589">
        <ele>125.029</ele>
        <time>2020-12-02T16:42:12Z</time>
      </trkpt>
      <trkpt lat="43.3219" lon="-1.44652">
        <ele>131.388</ele>
        <time>2020-12-02T16:42:32Z</time>
      </trkpt>
      <trkpt lat="43.32197" lon="-1.44737">
        <ele>136.33</ele>
        <time>2020-12-02T16:42:52Z</time>
      </trkpt>
      <trkpt lat="43.32224" lon="-1.4476">
        <ele>129.863</ele>
        <time>2020-12-02T16:43:12Z</time>
      </trkpt>
      <trkpt lat="43.32221" lon="-1.44781">
        <ele>127.94</ele>
        <time>2020-12-02T16:43:32Z</time>
      </trkpt>
      <trkpt lat="43.32167" lon="-1.44854">
        <ele>131.724</ele>
        <time>2020-12-02T16:43:52Z</time>
      </trkpt>
      <trkpt lat="43.32144" lon="-1.44909">
        <ele>121.504</ele>
        <time>2020-12-02T16:44:12Z</time>
      </trkpt>
      <trkpt lat="43.32188" lon="-1.44873">
        <ele>122.914</ele>
        <time>2020-12-02T16:44:32Z</time>
      </trkpt>
      <trkpt lat="43.32239" lon="-1.44847">
        <ele>114.808</ele>
        <time>2020-12-02T16:44:52Z</time>
      </trkpt>
      <trkpt lat="43.32278" lon="-1.44819">
        <ele>110.368</ele>
        <time>2020-12-02T16:45:12Z</time>
      </trkpt>
      <trkpt lat="43.32308" lon="-1.44845">
        <ele>103.663</ele>
        <time>2020-12-02T16:45:32Z</time>
      </trkpt>
      <trkpt lat="43.32297" lon="-1.44895">
        <ele>103.877</ele>
        <time>2020-12-02T16:45:52Z</time>
      </trkpt>
      <trkpt lat="43.32302" lon="-1.44977">
        <ele>100.829</ele>
        <time>2019-03-02T18:02:02Z</time>
      </trkpt>
      <trkpt lat="43.32349" lon="-1.44942">
        <ele>103.718</ele>
        <time>2019-03-02T18:02:22Z</time>
      </trkpt>
      <trkpt lat="43.32454" lon="-1.44914">
        <ele>106.49</ele>
        <time>2019-03-02T18:02:42Z</time>
      </trkpt>
      <trkpt lat="43.32424" lon="-1.45028">
        <ele>121.183</ele>
        <time>2019-03-02T18:03:02Z</time>
      </trkpt>
      <trkpt lat="43.32449" lon="-1.4505">
        <ele>127.53</ele>
        <time>2019-03-02T18:03:22Z</time>
      </trkpt>
      <trkpt lat="43.3253" lon="-1.45007">
        <ele>146.044</ele>
        <time>2019-03-02T18:03:42Z</time>
      </trkpt>
      <trkpt lat="43.32582" lon="-1.4502">
        <ele>159.705</ele>
        <time>2019-03-02T18:04:02Z</time>
      </trkpt>
      <trkpt lat="43.32544" lon="-1.45129">
        <ele>172.915</ele>
        <time>2019-03-02T18:04:22Z</time>
      </trkpt>
      <trkpt lat="43.32549" lon="-1.45208">
        <ele>181.608</ele>
        <time>2019-03-02T18:04:42Z</time>
      </trkpt>
      <trkpt lat="43.32607" lon="-1.45335">
        <ele>196.18</ele>
        <time>2019-03-02T18:05:02Z</time>
      </trkpt>
      <trkpt lat="43.32582" lon="-1.45612">
        <ele>200.835</ele>
        <time>2019-03-02T18:05:22Z</time>
      </trkpt>
      <trkpt lat="43.32568" lon="-1.45726">
        <ele>201.189</ele>
        <time>2019-03-02T18:05:42Z</time>
      </trkpt>
      <trkpt lat="43.32538" lon="-1.45801">
        <ele>205.321</ele>
        <time>2019-03-02T18:06:02Z</time>
      </trkpt>
      <trkpt lat="43.32405" lon="-1.4603">
        <ele>209.74</ele>
        <time>2019-03-02T18:06:22Z</time>
      </trkpt>
      <trkpt lat="43.32416" lon="-1.4614">
        <ele>206.922</ele>
        <time>2019-03-02T18:06:42Z</time>
      </trkpt>
      <trkpt lat="43.32449" lon="-1.4632">
        <ele>191.945</ele>
        <time>2019-03-02T18:07:02Z</time>
      </trkpt>
      <trkpt lat="43.32419" lon="-1.46331">
        <ele>184.112</ele>
        <time>2019-03-02T18:07:22Z</time>
      </trkpt>
      <trkpt lat="43.32396" lon="-1.46326">
        <ele>180.259</ele>
        <time>2019-03-02T18:07:42Z</time>
      </trkpt>
      <trkpt lat="43.32401" lon="-1.46389">
        <ele>172.203</ele>
        <time>2019-03-02T18:08:02Z</time>
      </trkpt>
      <trkpt lat="43.32437" lon="-1.46468">
        <ele>164.223</ele>
        <time>2019-03-02T18:08:22Z</time>
      </trkpt>
      <trkpt lat="43.32469" lon="-1.46502">
        <ele>160.508</ele>
        <time>2019-03-02T18:08:42Z</time>
      </trkpt>
      <trkpt lat="43.32479" lon="-1.4658">
        <ele>150.151</ele>
        <time>2019-03-02T18:09:02Z</time>
      </trkpt>
      <trkpt lat="43.32452" lon="-1.46601">
        <ele>154.626</ele>
        <time>2019-03-02T18:09:22Z</time>
      </trkpt>
      <trkpt lat="43.32459" lon="-1.46689">
        <ele>171.37</ele>
        <time>2019-03-02T18:09:42Z</time>
      </trkpt>
      <trkpt lat="43.32494" lon="-1.46743">
        <ele>180.472</ele>
        <time>2019-03-02T18:10:02Z</time>
      </trkpt>
      <trkpt lat="43.3248" lon="-1.46828">
        <ele>187.261</ele>
        <time>2019-03-02T18:10:22Z</time>
      </trkpt>
      <trkpt lat="43.32476" lon="-1.46912">
        <ele>177.563</ele>
        <time>2019-03-02T18:10:42Z</time>
      </trkpt>
      <trkpt lat="43.32432" lon="-1.46983">
        <ele>174.466</ele>
        <time>2019-03-02T18:11:02Z</time>
      </trkpt>
      <trkpt lat="43.32376" lon="-1.47054">
        <ele>181.043</ele>
        <time>2019-03-02T18:11:22Z</time>
      </trkpt>
      <trkpt lat="43.32291" lon="-1.47165">
        <ele>190.432</ele>
        <time>2019-03-02T18:11:42Z</time>
      </trkpt>
      <trkpt lat="43.3239" lon="-1.47082">
        <ele>186.892</ele>
        <time>2019-03-02T18:12:02Z</time>
      </trkpt>
      <trkpt lat="43.32437" lon="-1.47067">
        <ele>187.111</ele>
        <time>2019-03-02T18:12:22Z</time>
      </trkpt>
      <trkpt lat="43.32473" lon="-1.4708">
        <ele>187.808</ele>
        <time>2019-03-02T18:12:42Z</time>
      </trkpt>
      <trkpt lat="43.32523" lon="-1.47135">
        <ele>191.249</ele>
        <time>2019-03-02T18:13:02Z</time>
      </trkpt>
      <trkpt lat="43.32557" lon="-1.47183">
        <ele>192.064</ele>
        <time>2019-03-02T18:13:22Z</time>
      </trkpt>
      <trkpt lat="43.32668" lon="-1.47247">
        <ele>190.178</ele>
        <time>2019-03-02T18:13:42Z</time>
      </trkpt>
      <trkpt lat="43.32768" lon="-1.47423">
        <ele>174.01</ele>
        <time>2019-03-02T18:14:02Z</time>
      </trkpt>
      <trkpt lat="43.32758" lon="-1.47646">
        <ele>174.369</ele>
        <time>2019-03-02T18:14:22Z</time>
      </trkpt>
      <trkpt lat="43.32778" lon="-1.47695">
        <ele>177.971</ele>
        <time>2019-03-02T18:14:42Z</time>
      </trkpt>
      <trkpt lat="43.32763" lon="-1.47762">
        <ele>186.014</ele>
        <time>2019-03-02T18:15:02Z</time>
      </trkpt>
      <trkpt lat="43.3268" lon="-1.47899">
        <ele>199.541</ele>
        <time>2019-03-02T18:15:22Z</time>
      </trkpt>
      <trkpt lat="43.3266" lon="-1.48017">
        <ele>214.573</ele>
        <time>2019-03-02T18:15:42Z</time>
      </trkpt>
      <trkpt lat="43.32663" lon="-1.48118">
        <ele>227.485</ele>
        <time>2019-03-02T18:16:02Z</time>
      </trkpt>
      <trkpt lat="43.32654" lon="-1.48197">
        <ele>234.513</ele>
        <time>2019-03-02T18:16:22Z</time>
      </trkpt>
      <trkpt lat="43.32654" lon="-1.48331">
        <ele>240.708</ele>
        <time>2019-03-02T18:16:42Z</time>
      </trkpt>
      <trkpt lat="43.32665" lon="-1.48433">
        <ele>246.313</ele>
        <time>2019-03-02T18:17:02Z</time>
      </trkpt>
      <trkpt lat="43.32641" lon="-1.48594">
        <ele>259.738</ele>
        <time>2019-03-02T18:17:22Z</time>
      </trkpt>
      <trkpt lat="43.32574" lon="-1.48751">
        <ele>270.082</ele>
        <time>2019-03-02T18:17:42Z</time>
      </trkpt>
      <trkpt lat="43.32543" lon="-1.49062">
        <ele>256.914</ele>
        <time>2019-03-02T18:18:02Z</time>
      </trkpt>
      <trkpt lat="43.32449" lon="-1.49594">
        <ele>251.463</ele>
        <time>2019-03-02T18:18:22Z</time>
      </trkpt>
      <trkpt lat="43.32463" lon="-1.49661">
        <ele>251.955</ele>
        <time>2019-03-02T18:18:42Z</time>
      </trkpt>
      <trkpt lat="43.32483" lon="-1.49725">
        <ele>252.868</ele>
        <time>2019-03-02T18:19:02Z</time>
      </trkpt>
      <trkpt lat="43.32479" lon="-1.49794">
        <ele>255.545</ele>
        <time>2019-03-02T18:19:22Z</time>
      </trkpt>
      <trkpt lat="43.32454" lon="-1.49867">
        <ele>256.029</ele>
        <time>2019-03-02T18:19:42Z</time>
      </trkpt>
      <trkpt lat="43.32449" lon="-1.4994">
        <ele>255.1</ele>
        <time>2019-03-02T18:20:02Z</time>
      </trkpt>
      <trkpt lat="43.32483" lon="-1.50066">
        <ele>251.42</ele>
        <time>2019-03-02T18:20:22Z</time>
      </trkpt>
      <trkpt lat="43.32473" lon="-1.50184">
        <ele>247.308</ele>
        <time>2019-03-02T18:20:42Z</time>
      </trkpt>
      <trkpt lat="43.32498" lon="-1.50298">
        <ele>240.218</ele>
        <time>2019-03-02T18:21:02Z</time>
      </trkpt>
      <trkpt lat="43.32552" lon="-1.5039">
        <ele>228.253</ele>
        <time>2019-03-02T18:21:22Z</time>
      </trkpt>
      <trkpt lat="43.32671" lon="-1.50747">
        <ele>186.847</ele>
        <time>2019-03-02T18:21:42Z</time>
      </trkpt>
      <trkpt lat="43.3266" lon="-1.50852">
        <ele>186.069</ele>
        <time>2019-03-02T18:22:02Z</time>
      </trkpt>
      <trkpt lat="43.32607" lon="-1.50972">
        <ele>198.818</ele>
        <time>2019-03-02T18:22:22Z</time>
      </trkpt>
      <trkpt lat="43.32485" lon="-1.51092">
        <ele>226.35</ele>
        <time>2019-03-02T18:22:42Z</time>
      </trkpt>
      <trkpt lat="43.32479" lon="-1.51223">
        <ele>229.053</ele>
        <time>2019-03-02T18:23:02Z</time>
      </trkpt>
      <trkpt lat="43.32448" lon="-1.51322">
        <ele>224.44</ele>
        <time>2019-03-02T18:23:22Z</time>
      </trkpt>
      <trkpt lat="43.32529" lon="-1.52296">
        <ele>180.332</ele>
        <time>2019-03-02T18:23:42Z</time>
      </trkpt>
      <trkpt lat="43.32491" lon="-1.52463">
        <ele>176.292</ele>
        <time>2019-03-02T18:24:02Z</time>
      </trkpt>
      <trkpt lat="43.32504" lon="-1.52616">
        <ele>176.511</ele>
        <time>2019-03-02T18:24:22Z</time>
      </trkpt>
      <trkpt lat="43.32516" lon="-1.52809">
        <ele>167.508</ele>
        <time>2019-03-02T18:24:42Z</time>
      </trkpt>
      <trkpt lat="43.32541" lon="-1.52901">
        <ele>165.869</ele>
        <time>2019-03-02T18:25:02Z</time>
      </trkpt>
      <trkpt lat="43.3258" lon="-1.52959">
        <ele>170.634</ele>
        <time>2019-03-02T18:25:22Z</time>
      </trkpt>
      <trkpt lat="43.32574" lon="-1.53058">
        <ele>180.048</ele>
        <time>2019-03-02T18:25:42Z</time>
      </trkpt>
      <trkpt lat="43.32629" lon="-1.5315">
        <ele>169.91</ele>
        <time>2019-03-02T18:26:02Z</time>
      </trkpt>
      <trkpt lat="43.32668" lon="-1.53257">
        <ele>152.479</ele>
        <time>2019-03-02T18:26:22Z</time>
      </trkpt>
      <trkpt lat="43.32707" lon="-1.53429">
        <ele>131.891</ele>
        <time>2019-03-02T18:26:42Z</time>
      </trkpt>
      <trkpt lat="43.32846" lon="-1.53774">
        <ele>112.754</ele>
        <time>2019-03-02T18:27:02Z</time>
      </trkpt>
      <trkpt lat="43.32793" lon="-1.53822">
        <ele>110.111</ele>
        <time>2019-03-02T18:27:22Z</time>
      </trkpt>
      <trkpt lat="43.32754" lon="-1.53888">
        <ele>103.399</ele>
        <time>2019-03-02T18:27:42Z</time>
      </trkpt>
      <trkpt lat="43.32632" lon="-1.53974">
        <ele>80.207</ele>
        <time>2019-03-02T18:28:02Z</time>
      </trkpt>
      <trkpt lat="43.32538" lon="-1.54083">
        <ele>70.027</ele>
        <time>2019-03-02T18:28:22Z</time>
      </trkpt>
      <trkpt lat="43.32493" lon="-1.54197">
        <ele>66.708</ele>
        <time>2019-03-02T18:28:42Z</time>
      </trkpt>
      <trkpt lat="43.32494" lon="-1.54347">
        <ele>49.555</ele>
        <time>2019-03-02T18:29:02Z</time>
      </trkpt>
      <trkpt lat="43.32521" lon="-1.54401">
        <ele>37.69</ele>
        <time>2019-03-02T18:29:22Z</time>
      </trkpt>
      <trkpt lat="43.3254" lon="-1.5447">
        <ele>29.844</ele>
        <time>2019-03-02T18:29:42Z</time>
      </trkpt>
      <trkpt lat="43.32616" lon="-1.54465">
        <ele>33.576</ele>
        <time>2019-03-02T18:30:02Z</time>
      </trkpt>
      <trkpt lat="43.32671" lon="-1.54493">
        <ele>36.285</ele>
        <time>2019-03-02T18:30:22Z</time>
      </trkpt>
      <trkpt lat="43.32735" lon="-1.54485">
        <ele>36.267</ele>
        <time>2019-03-02T18:30:42Z</time>
      </trkpt>
      <trkpt lat="43.32793" lon="-1.54444">
        <ele>34.59</ele>
        <time>2019-03-02T18:31:02Z</time>
      </trkpt>
      <trkpt lat="43.32839" lon="-1.54403">
        <ele>32.787</ele>
        <time>2019-03-02T18:31:22Z</time>
      </trkpt>
      <trkpt lat="43.32892" lon="-1.54491">
        <ele>32.367</ele>
        <time>2019-03-02T18:31:42Z</time>
      </trkpt>
      <trkpt lat="43.32944" lon="-1.54459">
        <ele>32.081</ele>
        <time>2019-03-02T18:32:02Z</time>
      </trkpt>
      <trkpt lat="43.32992" lon="-1.54392">
        <ele>27.119</ele>
        <time>2019-03-02T18:32:22Z</time>
      </trkpt>
      <trkpt lat="43.33036" lon="-1.54437">
        <ele>32.008</ele>
        <time>2019-03-02T18:32:42Z</time>
      </trkpt>
      <trkpt lat="43.33074" lon="-1.54465">
        <ele>33.182</ele>
        <time>2019-03-02T18:33:02Z</time>
      </trkpt>
      <trkpt lat="43.33072" lon="-1.54553">
        <ele>36.797</ele>
        <time>2019-03-02T18:33:22Z</time>
      </trkpt>
      <trkpt lat="43.3303" lon="-1.54613">
        <ele>42.211</ele>
        <time>2019-03-02T18:33:42Z</time>
      </trkpt>
      <trkpt lat="43.32966" lon="-1.54731">
        <ele>58.153</ele>
        <time>2019-03-02T18:34:02Z</time>
      </trkpt>
      <trkpt lat="43.32914" lon="-1.54774">
        <ele>68.922</ele>
        <time>2019-03-02T18:34:22Z</time>
      </trkpt>
      <trkpt lat="43.32864" lon="-1.54768">
        <ele>78.284</ele>
        <time>2019-03-02T18:34:42Z</time>
      </trkpt>
      <trkpt lat="43.32882" lon="-1.54723">
        <ele>76.347</ele>
        <time>2019-03-02T18:35:02Z</time>
      </trkpt>
      <trkpt lat="43.32867" lon="-1.54723">
        <ele>79.054</ele>
        <time>2019-03-02T18:35:22Z</time>
      </trkpt>
      <trkpt lat="43.32822" lon="-1.54777">
        <ele>88.826</ele>
        <time>2019-03-02T18:35:42Z</time>
      </trkpt>
      <trkpt lat="43.32775" lon="-1.54877">
        <ele>104.047</ele>
        <time>2019-03-02T18:36:02Z</time>
      </trkpt>
      <trkpt lat="43.32763" lon="-1.54967">
        <ele>114.111</ele>
        <time>2019-03-02T18:36:22Z</time>
      </trkpt>
      <trkpt lat="43.32774" lon="-1.5503">
        <ele>125.608</ele>
        <time>2019-03-02T18:36:42Z</time>
      </trkpt>
      <trkpt lat="43.3276" lon="-1.5513">
        <ele>134.968</ele>
        <time>2019-03-02T18:37:02Z</time>
      </trkpt>
      <trkpt lat="43.32711" lon="-1.55191">
        <ele>139.513</ele>
        <time>2019-03-02T18:37:22Z</time>
      </trkpt>
      <trkpt lat="43.327" lon="-1.55255">
        <ele>146.737</ele>
        <time>2019-03-02T18:37:42Z</time>
      </trkpt>
      <trkpt lat="43.32719" lon="-1.553">
        <ele>151.579</ele>
        <time>2019-03-02T18:38:02Z</time>
      </trkpt>
      <trkpt lat="43.32707" lon="-1.55384">
        <ele>160.478</ele>
        <time>2019-03-02T18:38:22Z</time>
      </trkpt>
      <trkpt lat="43.32674" lon="-1.55461">
        <ele>164.88</ele>
        <time>2019-03-02T18:38:42Z</time>
      </trkpt>
      <trkpt lat="43.32702" lon="-1.55622">
        <ele>162.983</ele>
        <time>2019-03-02T18:39:02Z</time>
      </trkpt>
      <trkpt lat="43.32761" lon="-1.55716">
        <ele>166.19</ele>
        <time>2019-03-02T18:39:22Z</time>
      </trkpt>
      <trkpt lat="43.3281" lon="-1.55881">
        <ele>171.049</ele>
        <time>2019-03-02T18:39:42Z</time>
      </trkpt>
      <trkpt lat="43.32825" lon="-1.5604">
        <ele>174.102</ele>
        <time>2019-03-02T18:40:02Z</time>
      </trkpt>
      <trkpt lat="43.3281" lon="-1.56092">
        <ele>171.022</ele>
        <time>2019-03-02T18:40:22Z</time>
      </trkpt>
      <trkpt lat="43.32702" lon="-1.56336">
        <ele>187.208</ele>
        <time>2019-03-02T18:40:42Z</time>
      </trkpt>
      <trkpt lat="43.32691" lon="-1.56399">
        <ele>190.01</ele>
        <time>2019-03-02T18:41:02Z</time>
      </trkpt>
      <trkpt lat="43.3259" lon="-1.56686">
        <ele>213.855</ele>
        <time>2019-03-02T18:41:22Z</time>
      </trkpt>
      <trkpt lat="43.32644" lon="-1.56858">
        <ele>220.189</ele>
        <time>2019-03-02T18:41:42Z</time>
      </trkpt>
      <trkpt lat="43.32658" lon="-1.56918">
        <ele>220.521</ele>
        <time>2019-03-02T18:42:02Z</time>
      </trkpt>
      <trkpt lat="43.32705" lon="-1.56987">
        <ele>217.63</ele>
        <time>2019-03-02T18:42:22Z</time>
      </trkpt>
      <trkpt lat="43.32722" lon="-1.57098">
        <ele>216.982</ele>
        <time>2019-03-02T18:42:42Z</time>
      </trkpt>
      <trkpt lat="43.3269" lon="-1.57132">
        <ele>216.295</ele>
        <time>2019-03-02T18:43:02Z</time>
      </trkpt>
      <trkpt lat="43.32665" lon="-1.57126">
        <ele>215.022</ele>
        <time>2019-03-02T18:43:22Z</time>
      </trkpt>
      <trkpt lat="43.32707" lon="-1.5719">
        <ele>209.718</ele>
        <time>2019-03-02T18:43:42Z</time>
      </trkpt>
      <trkpt lat="43.32722" lon="-1.57291">
        <ele>203.698</ele>
        <time>2019-03-02T18:44:02Z</time>
      </trkpt>
      <trkpt lat="43.32761" lon="-1.57358">
        <ele>198.717</ele>
        <time>2019-03-02T18:44:22Z</time>
      </trkpt>
      <trkpt lat="43.32833" lon="-1.57448">
        <ele>194.108</ele>
        <time>2019-03-02T18:44:42Z</time>
      </trkpt>
      <trkpt lat="43.32861" lon="-1.57525">
        <ele>190.747</ele>
        <time>2019-03-02T18:45:02Z</time>
      </trkpt>
      <trkpt lat="43.32891" lon="-1.57542">
        <ele>186.362</ele>
        <time>2019-03-02T18:45:22Z</time>
      </trkpt>
      <trkpt lat="43.32985" lon="-1.57551">
        <ele>176.146</ele>
        <time>2019-03-02T18:45:42Z</time>
      </trkpt>
      <trkpt lat="43.33047" lon="-1.57611">
        <ele>173.328</ele>
        <time>2019-03-02T18:46:02Z</time>
      </trkpt>
      <trkpt lat="43.33061" lon="-1.57652">
        <ele>174.987</ele>
        <time>2019-03-02T18:46:22Z</time>
      </trkpt>
      <trkpt lat="43.33094" lon="-1.57708">
        <ele>179.739</ele>
        <time>2019-03-02T18:46:42Z</time>
      </trkpt>
      <trkpt lat="43.33136" lon="-1.57879">
        <ele>201.532</ele>
        <time>2019-03-02T18:47:02Z</time>
      </trkpt>
      <trkpt lat="43.33128" lon="-1.57922">
        <ele>203.199</ele>
        <time>2019-03-02T18:47:22Z</time>
      </trkpt>
      <trkpt lat="43.33089" lon="-1.58042">
        <ele>216.011</ele>
        <time>2019-03-02T18:47:42Z</time>
      </trkpt>
      <trkpt lat="43.33077" lon="-1.58083">
        <ele>219.521</ele>
        <time>2019-03-02T18:48:02Z</time>
      </trkpt>
      <trkpt lat="43.33084" lon="-1.58113">
        <ele>223.103</ele>
        <time>2019-03-02T18:48:22Z</time>
      </trkpt>
      <trkpt lat="43.33117" lon="-1.58175">
        <ele>224.808</ele>
        <time>2019-03-02T18:48:42Z</time>
      </trkpt>
      <trkpt lat="43.33164" lon="-1.58227">
        <ele>237.587</ele>
        <time>2019-03-02T18:49:02Z</time>
      </trkpt>
      <trkpt lat="43.33178" lon="-1.58313">
        <ele>253.812</ele>
        <time>2019-03-02T18:49:22Z</time>
      </trkpt>
      <trkpt lat="43.33131" lon="-1.58426">
        <ele>279.096</ele>
        <time>2019-03-02T18:49:42Z</time>
      </trkpt>
      <trkpt lat="43.33128" lon="-1.58596">
        <ele>293.698</ele>
        <time>2019-03-02T18:50:02Z</time>
      </trkpt>
      <trkpt lat="43.33092" lon="-1.58585">
        <ele>291.177</ele>
        <time>2019-03-02T18:50:22Z</time>
      </trkpt>
      <trkpt lat="43.33056" lon="-1.58624">
        <ele>288.059</ele>
        <time>2019-03-02T18:50:42Z</time>
      </trkpt>
      <trkpt lat="43.33041" lon="-1.58662">
        <ele>284.232</ele>
        <time>2019-03-02T18:51:02Z</time>
      </trkpt>
      <trkpt lat="43.33044" lon="-1.5878">
        <ele>273.149</ele>
        <time>2019-03-02T18:51:22Z</time>
      </trkpt>
      <trkpt lat="43.32992" lon="-1.58907">
        <ele>257.887</ele>
        <time>2019-03-02T18:51:42Z</time>
      </trkpt>
      <trkpt lat="43.32956" lon="-1.59066">
        <ele>249.142</ele>
        <time>2019-03-02T18:52:02Z</time>
      </trkpt>
      <trkpt lat="43.32914" lon="-1.59025">
        <ele>243.926</ele>
        <time>2019-03-02T18:52:22Z</time>
      </trkpt>
      <trkpt lat="43.32853" lon="-1.59038">
        <ele>230.108</ele>
        <time>2019-03-02T18:52:42Z</time>
      </trkpt>
      <trkpt lat="43.32805" lon="-1.59008">
        <ele>224.744</ele>
        <time>2019-03-02T18:53:02Z</time>
      </trkpt>
      <trkpt lat="43.32718" lon="-1.5892">
        <ele>201.019</ele>
        <time>2019-03-02T18:53:22Z</time>
      </trkpt>
      <trkpt lat="43.32652" lon="-1.58931">
        <ele>193.743</ele>
        <time>2019-03-02T18:53:42Z</time>
      </trkpt>
      <trkpt lat="43.32599" lon="-1.58879">
        <ele>177.375</ele>
        <time>2019-03-02T18:54:02Z</time>
      </trkpt>
      <trkpt lat="43.32529" lon="-1.58883">
        <ele>160.984</ele>
        <time>2019-03-02T18:54:22Z</time>
      </trkpt>
      <trkpt lat="43.32512" lon="-1.58931">
        <ele>154.966</ele>
        <time>2019-03-02T18:54:42Z</time>
      </trkpt>
      <trkpt lat="43.32477" lon="-1.58997">
        <ele>150.489</ele>
        <time>2019-03-02T18:55:02Z</time>
      </trkpt>
      <trkpt lat="43.32404" lon="-1.59006">
        <ele>138.936</ele>
        <time>2019-03-02T18:55:22Z</time>
      </trkpt>
      <trkpt lat="43.32337" lon="-1.58969">
        <ele>119.225</ele>
        <time>2019-03-02T18:55:42Z</time>
      </trkpt>
      <trkpt lat="43.32401" lon="-1.58823">
        <ele>111.526</ele>
        <time>2019-03-02T18:56:02Z</time>
      </trkpt>
      <trkpt lat="43.32418" lon="-1.58746">
        <ele>106.908</ele>
        <time>2019-03-02T18:56:22Z</time>
      </trkpt>
      <trkpt lat="43.32474" lon="-1.58609">
        <ele>103.208</ele>
        <time>2019-03-02T18:56:42Z</time>
      </trkpt>
      <trkpt lat="43.32463" lon="-1.58598">
        <ele>100.698</ele>
        <time>2019-03-02T18:57:02Z</time>
      </trkpt>
      <trkpt lat="43.32438" lon="-1.58619">
        <ele>97.623</ele>
        <time>2019-03-02T18:57:22Z</time>
      </trkpt>
      <trkpt lat="43.32354" lon="-1.58613">
        <ele>88.267</ele>
        <time>2019-03-02T18:57:42Z</time>
      </trkpt>
      <trkpt lat="43.32302" lon="-1.58652">
        <ele>84.119</ele>
        <time>2019-03-02T18:58:02Z</time>
      </trkpt>
      <trkpt lat="43.32128" lon="-1.58641">
        <ele>76.768</ele>
        <time>2019-03-02T18:58:22Z</time>
      </trkpt>
      <trkpt lat="43.32101" lon="-1.58609">
        <ele>84.28</ele>
        <time>2019-03-02T18:58:42Z</time>
      </trkpt>
      <trkpt lat="43.32079" lon="-1.58553">
        <ele>85.543</ele>
        <time>2019-03-02T18:59:02Z</time>
      </trkpt>
      <trkpt lat="43.32039" lon="-1.58501">
        <ele>84.56</ele>
        <time>2019-03-02T18:59:22Z</time>
      </trkpt>
      <trkpt lat="43.32001" lon="-1.58418">
        <ele>85.856</ele>
        <time>2019-03-02T18:59:42Z</time>
      </trkpt>
      <trkpt lat="43.31965" lon="-1.58416">
        <ele>89.159</ele>
        <time>2019-03-02T19:00:02Z</time>
      </trkpt>
      <trkpt lat="43.31961" lon="-1.58315">
        <ele>95.514</ele>
        <time>2019-03-02T19:00:22Z</time>
      </trkpt>
      <trkpt lat="43.31914" lon="-1.58177">
        <ele>79.908</ele>
        <time>2019-03-02T19:00:42Z</time>
      </trkpt>
      <trkpt lat="43.31853" lon="-1.58165">
        <ele>71.051</ele>
        <time>2019-03-02T19:01:02Z</time>
      </trkpt>
      <trkpt lat="43.31823" lon="-1.58085">
        <ele>67.016</ele>
        <time>2019-03-02T19:01:22Z</time>
      </trkpt>
      <trkpt lat="43.31815" lon="-1.57986">
        <ele>64.84</ele>
        <time>2019-03-02T19:01:42Z</time>
      </trkpt>
      <trkpt lat="43.31714" lon="-1.57978">
        <ele>67.022</ele>
        <time>2019-03-02T19:02:02Z</time>
      </trkpt>
      <trkpt lat="43.31591" lon="-1.58016">
        <ele>58.541</ele>
        <time>2019-03-02T19:02:22Z</time>
      </trkpt>
      <trkpt lat="43.31491" lon="-1.58059">
        <ele>57.793</ele>
        <time>2019-03-02T19:02:42Z</time>
      </trkpt>
      <trkpt lat="43.31374" lon="-1.58068">
        <ele>62.616</ele>
        <time>2019-03-02T19:03:02Z</time>
      </trkpt>
      <trkpt lat="43.31333" lon="-1.58047">
        <ele>70.083</ele>
        <time>2019-03-02T19:03:22Z</time>
      </trkpt>
      <trkpt lat="43.31309" lon="-1.58014">
        <ele>72.634</ele>
        <time>2019-03-02T19:03:42Z</time>
      </trkpt>
      <trkpt lat="43.31263" lon="-1.58023">
        <ele>77.755</ele>
        <time>2019-03-02T19:04:02Z</time>
      </trkpt>
      <trkpt lat="43.31281" lon="-1.58077">
        <ele>74.91</ele>
        <time>2019-03-02T19:04:22Z</time>
      </trkpt>
    </trkseg>
  </trk>
</gpx>